PWSweather.com
Personal Weather Stations
Station Observations
ROSEGARDEN
Rose Garden, Brentwood, CA 94513

Rose GardenBrentwood, CA 94513

Lat: 37.967503, Lon: -121.721004

Elevation: 85

Station Type: La Crosse 2813

High Low Average
Temperature 63.4°F17.4°C 36.4°F2.4°C 47.7°F8.7°C
Dew Point 37.7°F3.2°C 28.0°F-2.2°C 31.9°F-0.1°C
Winds 6.2 mph 10.0 kmh Calm Calm 2.0 mph SW3.2 kmh SW
Wind Gusts 9.2 mph14.8 kmh -- 4.0 mph6.4 kmh
Humidity 77% 29% 57%
Pressure 30.06 in1017.9 mb 29.93 in1013.5 mb -
Precipitation 0.00 in0.0 mm - -
Hour Temp Dew Point Humidity Winds Wind Gusts Pressure Precip Precip Rate Daily Precip Total
12:00 AM 44.1°F6.7°C 30.2°F-1.0°C 58% 5.2 mph WSW8.4 kmh WSW 7.6 mph12.2 kmh 29.93 in1013.5 mb 0.00 in0.0 mm 0.00 in/hr0.0 mm/hr 0.00 in0.0 mm
12:05 AM 44.1°F6.7°C 30.2°F-1.0°C 58% 4.2 mph W6.8 kmh W 7.6 mph12.2 kmh 29.93 in1013.5 mb 0.00 in0.0 mm 0.00 in/hr0.0 mm/hr 0.00 in0.0 mm
12:10 AM 44.1°F6.7°C 30.2°F-1.0°C 58% 5.0 mph W8.0 kmh W 6.7 mph10.8 kmh 29.93 in1013.5 mb 0.00 in0.0 mm 0.00 in/hr0.0 mm/hr 0.00 in0.0 mm
12:11 AM 44.1°F6.7°C 30.2°F-1.0°C 58% 4.8 mph W7.7 kmh W 6.7 mph10.8 kmh 29.93 in1013.5 mb 0.00 in0.0 mm 0.00 in/hr0.0 mm/hr 0.00 in0.0 mm
12:15 AM 43.9°F6.6°C 30.1°F-1.1°C 58% 5.0 mph W8.0 kmh W 6.9 mph11.1 kmh 29.93 in1013.5 mb 0.00 in0.0 mm 0.00 in/hr0.0 mm/hr 0.00 in0.0 mm
12:16 AM 43.9°F6.6°C 30.1°F-1.1°C 58% 5.3 mph W8.5 kmh W 6.9 mph11.1 kmh 29.93 in1013.5 mb 0.00 in0.0 mm 0.00 in/hr0.0 mm/hr 0.00 in0.0 mm
12:20 AM 43.9°F6.6°C 30.1°F-1.1°C 58% 4.0 mph W6.4 kmh W 8.3 mph13.4 kmh 29.93 in1013.5 mb 0.00 in0.0 mm 0.00 in/hr0.0 mm/hr 0.00 in0.0 mm
12:21 AM 43.9°F6.6°C 30.1°F-1.1°C 58% 4.1 mph W6.6 kmh W 8.3 mph13.4 kmh 29.93 in1013.5 mb 0.00 in0.0 mm 0.00 in/hr0.0 mm/hr 0.00 in0.0 mm
12:25 AM 43.9°F6.6°C 30.1°F-1.1°C 58% 4.6 mph W7.4 kmh W 8.3 mph13.4 kmh 29.93 in1013.5 mb 0.00 in0.0 mm 0.00 in/hr0.0 mm/hr 0.00 in0.0 mm
12:26 AM 43.9°F6.6°C 30.1°F-1.1°C 58% 5.0 mph W8.0 kmh W 8.3 mph13.4 kmh 29.93 in1013.5 mb 0.00 in0.0 mm 0.00 in/hr0.0 mm/hr 0.00 in0.0 mm
12:30 AM 43.9°F6.6°C 30.1°F-1.1°C 58% 4.1 mph W6.6 kmh W 9.2 mph14.8 kmh 29.93 in1013.5 mb 0.00 in0.0 mm 0.00 in/hr0.0 mm/hr 0.00 in0.0 mm
12:31 AM 43.9°F6.6°C 30.1°F-1.1°C 58% 4.3 mph W6.9 kmh W 9.2 mph14.8 kmh 29.93 in1013.5 mb 0.00 in0.0 mm 0.00 in/hr0.0 mm/hr 0.00 in0.0 mm
12:35 AM 43.7°F6.5°C 29.9°F-1.2°C 58% 4.6 mph WNW7.4 kmh WNW 9.2 mph14.8 kmh 29.94 in1013.9 mb 0.00 in0.0 mm 0.00 in/hr0.0 mm/hr 0.00 in0.0 mm
12:36 AM 43.7°F6.5°C 29.9°F-1.2°C 58% 4.2 mph WNW6.8 kmh WNW 9.2 mph14.8 kmh 29.94 in1013.9 mb 0.00 in0.0 mm 0.00 in/hr0.0 mm/hr 0.00 in0.0 mm
12:41 AM 43.7°F6.5°C 29.9°F-1.2°C 58% 4.3 mph WNW6.9 kmh WNW 6.9 mph11.1 kmh 29.93 in1013.5 mb 0.00 in0.0 mm 0.00 in/hr0.0 mm/hr 0.00 in0.0 mm
12:46 AM 43.6°F6.4°C 29.7°F-1.3°C 58% 2.8 mph W4.5 kmh W 6.3 mph10.1 kmh 29.93 in1013.5 mb 0.00 in0.0 mm 0.00 in/hr0.0 mm/hr 0.00 in0.0 mm
12:51 AM 43.6°F6.4°C 29.7°F-1.3°C 58% 3.1 mph W5.0 kmh W 5.4 mph8.7 kmh 29.93 in1013.5 mb 0.00 in0.0 mm 0.00 in/hr0.0 mm/hr 0.00 in0.0 mm
12:56 AM 43.6°F6.4°C 30.2°F-1.0°C 59% 4.6 mph W7.4 kmh W 7.4 mph11.9 kmh 29.93 in1013.5 mb 0.00 in0.0 mm 0.00 in/hr0.0 mm/hr 0.00 in0.0 mm
01:01 AM 43.6°F6.4°C 30.2°F-1.0°C 59% 4.3 mph WSW6.9 kmh WSW 7.8 mph12.6 kmh 29.94 in1013.9 mb 0.00 in0.0 mm 0.00 in/hr0.0 mm/hr 0.00 in0.0 mm
01:06 AM 43.6°F6.4°C 30.2°F-1.0°C 59% 4.0 mph WSW6.4 kmh WSW 7.8 mph12.6 kmh 29.94 in1013.9 mb 0.00 in0.0 mm 0.00 in/hr0.0 mm/hr 0.00 in0.0 mm
01:11 AM 43.4°F6.3°C 30.0°F-1.1°C 59% 2.9 mph WSW4.7 kmh WSW 6.0 mph9.7 kmh 29.94 in1013.9 mb 0.00 in0.0 mm 0.00 in/hr0.0 mm/hr 0.00 in0.0 mm
01:16 AM 43.4°F6.3°C 30.0°F-1.1°C 59% 3.3 mph W5.3 kmh W 4.5 mph7.2 kmh 29.94 in1013.9 mb 0.00 in0.0 mm 0.00 in/hr0.0 mm/hr 0.00 in0.0 mm
01:21 AM 43.4°F6.3°C 30.0°F-1.1°C 59% 3.0 mph WNW4.8 kmh WNW 5.6 mph9.0 kmh 29.94 in1013.9 mb 0.00 in0.0 mm 0.00 in/hr0.0 mm/hr 0.00 in0.0 mm
01:26 AM 43.4°F6.3°C 30.0°F-1.1°C 59% 1.7 mph W2.7 kmh W 5.6 mph9.0 kmh 29.95 in1014.2 mb 0.00 in0.0 mm 0.00 in/hr0.0 mm/hr 0.00 in0.0 mm
01:31 AM 43.2°F6.2°C 30.2°F-1.0°C 60% 2.1 mph W3.4 kmh W 5.6 mph9.0 kmh 29.94 in1013.9 mb 0.00 in0.0 mm 0.00 in/hr0.0 mm/hr 0.00 in0.0 mm
01:36 AM 43.2°F6.2°C 30.2°F-1.0°C 60% 2.7 mph W4.3 kmh W 5.6 mph9.0 kmh 29.94 in1013.9 mb 0.00 in0.0 mm 0.00 in/hr0.0 mm/hr 0.00 in0.0 mm
01:41 AM 43.2°F6.2°C 30.2°F-1.0°C 60% 2.7 mph WSW4.3 kmh WSW 5.4 mph8.7 kmh 29.95 in1014.2 mb 0.00 in0.0 mm 0.00 in/hr0.0 mm/hr 0.00 in0.0 mm
01:46 AM 43.0°F6.1°C 30.1°F-1.1°C 60% 3.9 mph W6.3 kmh W 5.4 mph8.7 kmh 29.94 in1013.9 mb 0.00 in0.0 mm 0.00 in/hr0.0 mm/hr 0.00 in0.0 mm
01:47 AM 43.0°F6.1°C 30.1°F-1.1°C 60% 3.9 mph W6.3 kmh W 5.4 mph8.7 kmh 29.94 in1013.9 mb 0.00 in0.0 mm 0.00 in/hr0.0 mm/hr 0.00 in0.0 mm
01:51 AM 43.0°F6.1°C 30.1°F-1.1°C 60% 2.2 mph WNW3.5 kmh WNW 5.4 mph8.7 kmh 29.94 in1013.9 mb 0.00 in0.0 mm 0.00 in/hr0.0 mm/hr 0.00 in0.0 mm
01:52 AM 43.0°F6.1°C 30.1°F-1.1°C 60% 2.3 mph WNW3.7 kmh WNW 5.4 mph8.7 kmh 29.95 in1014.2 mb 0.00 in0.0 mm 0.00 in/hr0.0 mm/hr 0.00 in0.0 mm
01:56 AM 42.8°F6.0°C 30.2°F-1.0°C 61% 2.5 mph W4.0 kmh W 4.0 mph6.4 kmh 29.94 in1013.9 mb 0.00 in0.0 mm 0.00 in/hr0.0 mm/hr 0.00 in0.0 mm
01:57 AM 43.0°F6.1°C 30.1°F-1.1°C 60% 2.4 mph W3.9 kmh W 4.0 mph6.4 kmh 29.95 in1014.2 mb 0.00 in0.0 mm 0.00 in/hr0.0 mm/hr 0.00 in0.0 mm
02:02 AM 42.8°F6.0°C 30.2°F-1.0°C 61% 2.3 mph WNW3.7 kmh WNW 4.0 mph6.4 kmh 29.94 in1013.9 mb 0.00 in0.0 mm 0.00 in/hr0.0 mm/hr 0.00 in0.0 mm
02:07 AM 42.8°F6.0°C 30.2°F-1.0°C 61% 3.4 mph W5.5 kmh W 4.0 mph6.4 kmh 29.95 in1014.2 mb 0.00 in0.0 mm 0.00 in/hr0.0 mm/hr 0.00 in0.0 mm
02:12 AM 42.7°F5.9°C 30.2°F-1.0°C 61% 2.2 mph WNW3.5 kmh WNW 4.0 mph6.4 kmh 29.95 in1014.2 mb 0.00 in0.0 mm 0.00 in/hr0.0 mm/hr 0.00 in0.0 mm
02:17 AM 42.5°F5.8°C 30.0°F-1.1°C 61% 1.0 mph NW1.6 kmh NW 4.0 mph6.4 kmh 29.95 in1014.2 mb 0.00 in0.0 mm 0.00 in/hr0.0 mm/hr 0.00 in0.0 mm
02:22 AM 42.1°F5.6°C 29.6°F-1.3°C 61% 1.8 mph WSW2.9 kmh WSW 3.4 mph5.5 kmh 29.95 in1014.2 mb 0.00 in0.0 mm 0.00 in/hr0.0 mm/hr 0.00 in0.0 mm
02:27 AM 42.1°F5.6°C 30.0°F-1.1°C 62% 1.2 mph WSW1.9 kmh WSW 2.5 mph4.0 kmh 29.95 in1014.2 mb 0.00 in0.0 mm 0.00 in/hr0.0 mm/hr 0.00 in0.0 mm
02:32 AM 41.8°F5.4°C 29.7°F-1.3°C 62% 0.9 mph W1.4 kmh W 2.5 mph4.0 kmh 29.95 in1014.2 mb 0.00 in0.0 mm 0.00 in/hr0.0 mm/hr 0.00 in0.0 mm
02:37 AM 41.6°F5.3°C 29.5°F-1.4°C 62% 0.9 mph WSW1.4 kmh WSW 1.8 mph2.9 kmh 29.95 in1014.2 mb 0.00 in0.0 mm 0.00 in/hr0.0 mm/hr 0.00 in0.0 mm
02:42 AM 41.4°F5.2°C 29.3°F-1.5°C 62% 0.2 mph WSW0.3 kmh WSW 1.8 mph2.9 kmh 29.95 in1014.2 mb 0.00 in0.0 mm 0.00 in/hr0.0 mm/hr 0.00 in0.0 mm
02:47 AM 41.2°F5.1°C 29.2°F-1.6°C 62% Calm Calm 1.3 mph2.1 kmh 29.95 in1014.2 mb 0.00 in0.0 mm 0.00 in/hr0.0 mm/hr 0.00 in0.0 mm
02:52 AM 41.0°F5.0°C 29.4°F-1.4°C 63% 0.4 mph WNW0.6 kmh WNW 0.7 mph1.1 kmh 29.95 in1014.2 mb 0.00 in0.0 mm 0.00 in/hr0.0 mm/hr 0.00 in0.0 mm
02:57 AM 40.9°F4.9°C 29.3°F-1.5°C 63% 0.5 mph WNW0.8 kmh WNW 1.1 mph1.8 kmh 29.94 in1013.9 mb 0.00 in0.0 mm 0.00 in/hr0.0 mm/hr 0.00 in0.0 mm
03:02 AM 40.7°F4.8°C 29.1°F-1.6°C 63% 0.5 mph WNW0.8 kmh WNW 1.1 mph1.8 kmh 29.94 in1013.9 mb 0.00 in0.0 mm 0.00 in/hr0.0 mm/hr 0.00 in0.0 mm
03:03 AM 40.7°F4.8°C 29.1°F-1.6°C 63% 0.5 mph WNW0.8 kmh WNW 1.1 mph1.8 kmh 29.94 in1013.9 mb 0.00 in0.0 mm 0.00 in/hr0.0 mm/hr 0.00 in0.0 mm
03:07 AM 40.5°F4.7°C 28.9°F-1.7°C 63% 0.9 mph W1.4 kmh W 1.8 mph2.9 kmh 29.95 in1014.2 mb 0.00 in0.0 mm 0.00 in/hr0.0 mm/hr 0.00 in0.0 mm
03:08 AM 40.5°F4.7°C 28.9°F-1.7°C 63% 0.8 mph W1.3 kmh W 1.8 mph2.9 kmh 29.95 in1014.2 mb 0.00 in0.0 mm 0.00 in/hr0.0 mm/hr 0.00 in0.0 mm
03:12 AM 40.3°F4.6°C 29.1°F-1.6°C 64% 0.9 mph S1.4 kmh S 1.8 mph2.9 kmh 29.95 in1014.2 mb 0.00 in0.0 mm 0.00 in/hr0.0 mm/hr 0.00 in0.0 mm
03:13 AM 40.3°F4.6°C 29.1°F-1.6°C 64% 1.1 mph S1.8 kmh S 1.8 mph2.9 kmh 29.95 in1014.2 mb 0.00 in0.0 mm 0.00 in/hr0.0 mm/hr 0.00 in0.0 mm
03:18 AM 40.1°F4.5°C 29.3°F-1.5°C 65% 0.7 mph S1.1 kmh S 1.8 mph2.9 kmh 29.95 in1014.2 mb 0.00 in0.0 mm 0.00 in/hr0.0 mm/hr 0.00 in0.0 mm
03:23 AM 40.0°F4.4°C 29.8°F-1.2°C 67% 1.4 mph S2.3 kmh S 1.8 mph2.9 kmh 29.95 in1014.2 mb 0.00 in0.0 mm 0.00 in/hr0.0 mm/hr 0.00 in0.0 mm
03:28 AM 39.8°F4.3°C 29.3°F-1.5°C 66% 1.1 mph SW1.8 kmh SW 1.8 mph2.9 kmh 29.95 in1014.2 mb 0.00 in0.0 mm 0.00 in/hr0.0 mm/hr 0.00 in0.0 mm
03:33 AM 39.4°F4.1°C 28.5°F-1.9°C 65% 0.6 mph SW1.0 kmh SW 1.6 mph2.6 kmh 29.95 in1014.2 mb 0.00 in0.0 mm 0.00 in/hr0.0 mm/hr 0.00 in0.0 mm
03:38 AM 39.2°F4.0°C 28.4°F-2.0°C 65% 0.8 mph SW1.3 kmh SW 1.1 mph1.8 kmh 29.95 in1014.2 mb 0.00 in0.0 mm 0.00 in/hr0.0 mm/hr 0.00 in0.0 mm
03:43 AM 38.9°F3.8°C 28.5°F-1.9°C 66% 0.4 mph SW0.6 kmh SW 1.1 mph1.8 kmh 29.95 in1014.2 mb 0.00 in0.0 mm 0.00 in/hr0.0 mm/hr 0.00 in0.0 mm
03:48 AM 38.5°F3.6°C 28.1°F-2.2°C 66% 0.4 mph SW0.6 kmh SW 0.7 mph1.1 kmh 29.95 in1014.2 mb 0.00 in0.0 mm 0.00 in/hr0.0 mm/hr 0.00 in0.0 mm
03:49 AM 38.5°F3.6°C 28.1°F-2.2°C 66% 0.4 mph SW0.6 kmh SW 0.7 mph1.1 kmh 29.95 in1014.2 mb 0.00 in0.0 mm 0.00 in/hr0.0 mm/hr 0.00 in0.0 mm
03:53 AM 38.3°F3.5°C 28.3°F-2.1°C 67% 1.1 mph WSW1.8 kmh WSW 1.1 mph1.8 kmh 29.96 in1014.6 mb 0.00 in0.0 mm 0.00 in/hr0.0 mm/hr 0.00 in0.0 mm
03:54 AM 38.3°F3.5°C 28.3°F-2.1°C 67% 1.1 mph WSW1.8 kmh WSW 1.1 mph1.8 kmh 29.96 in1014.6 mb 0.00 in0.0 mm 0.00 in/hr0.0 mm/hr 0.00 in0.0 mm
03:58 AM 38.2°F3.4°C 28.2°F-2.1°C 67% 1.0 mph WSW1.6 kmh WSW 1.8 mph2.9 kmh 29.96 in1014.6 mb 0.00 in0.0 mm 0.00 in/hr0.0 mm/hr 0.00 in0.0 mm
03:59 AM 38.2°F3.4°C 28.2°F-2.1°C 67% 0.9 mph WSW1.4 kmh WSW 1.8 mph2.9 kmh 29.96 in1014.6 mb 0.00 in0.0 mm 0.00 in/hr0.0 mm/hr 0.00 in0.0 mm
04:03 AM 38.0°F3.3°C 28.0°F-2.2°C 67% 0.4 mph SW0.6 kmh SW 1.8 mph2.9 kmh 29.96 in1014.6 mb 0.00 in0.0 mm 0.00 in/hr0.0 mm/hr 0.00 in0.0 mm
04:04 AM 38.0°F3.3°C 28.0°F-2.2°C 67% 0.4 mph SW0.6 kmh SW 1.8 mph2.9 kmh 29.96 in1014.6 mb 0.00 in0.0 mm 0.00 in/hr0.0 mm/hr 0.00 in0.0 mm
04:08 AM 37.8°F3.2°C 28.5°F-1.9°C 69% 0.8 mph SSW1.3 kmh SSW 1.1 mph1.8 kmh 29.96 in1014.6 mb 0.00 in0.0 mm 0.00 in/hr0.0 mm/hr 0.00 in0.0 mm
04:09 AM 37.8°F3.2°C 28.5°F-1.9°C 69% 0.8 mph SSW1.3 kmh SSW 1.1 mph1.8 kmh 29.96 in1014.6 mb 0.00 in0.0 mm 0.00 in/hr0.0 mm/hr 0.00 in0.0 mm
04:14 AM 37.8°F3.2°C 28.5°F-1.9°C 69% 0.5 mph SSW0.8 kmh SSW 1.1 mph1.8 kmh 29.97 in1014.9 mb 0.00 in0.0 mm 0.00 in/hr0.0 mm/hr 0.00 in0.0 mm
04:19 AM 38.0°F3.3°C 28.7°F-1.8°C 69% 0.8 mph SSW1.3 kmh SSW 1.1 mph1.8 kmh 29.96 in1014.6 mb 0.00 in0.0 mm 0.00 in/hr0.0 mm/hr 0.00 in0.0 mm
04:24 AM 37.8°F3.2°C 29.0°F-1.7°C 70% 1.0 mph SW1.6 kmh SW 1.3 mph2.1 kmh 29.96 in1014.6 mb 0.00 in0.0 mm 0.00 in/hr0.0 mm/hr 0.00 in0.0 mm
04:29 AM 37.8°F3.2°C 29.3°F-1.5°C 71% 0.9 mph SSW1.4 kmh SSW 1.3 mph2.1 kmh 29.96 in1014.6 mb 0.00 in0.0 mm 0.00 in/hr0.0 mm/hr 0.00 in0.0 mm
04:34 AM 37.8°F3.2°C 29.0°F-1.7°C 70% 1.2 mph SW1.9 kmh SW 1.6 mph2.6 kmh 29.96 in1014.6 mb 0.00 in0.0 mm 0.00 in/hr0.0 mm/hr 0.00 in0.0 mm
04:39 AM 37.6°F3.1°C 28.5°F-1.9°C 69% 0.7 mph SW1.1 kmh SW 1.6 mph2.6 kmh 29.97 in1014.9 mb 0.00 in0.0 mm 0.00 in/hr0.0 mm/hr 0.00 in0.0 mm
04:44 AM 37.4°F3.0°C 28.6°F-1.9°C 70% 1.1 mph SW1.8 kmh SW 1.1 mph1.8 kmh 29.97 in1014.9 mb 0.00 in0.0 mm 0.00 in/hr0.0 mm/hr 0.00 in0.0 mm
04:49 AM 37.3°F2.9°C 28.4°F-2.0°C 70% 0.5 mph SW0.8 kmh SW 1.1 mph1.8 kmh 29.97 in1014.9 mb 0.00 in0.0 mm 0.00 in/hr0.0 mm/hr 0.00 in0.0 mm
04:50 AM 37.3°F2.9°C 28.4°F-2.0°C 70% 0.5 mph SW0.8 kmh SW 1.1 mph1.8 kmh 29.97 in1014.9 mb 0.00 in0.0 mm 0.00 in/hr0.0 mm/hr 0.00 in0.0 mm
04:54 AM 37.1°F2.8°C 28.3°F-2.1°C 70% Calm Calm 1.1 mph1.8 kmh 29.97 in1014.9 mb 0.00 in0.0 mm 0.00 in/hr0.0 mm/hr 0.00 in0.0 mm
04:55 AM 37.1°F2.8°C 28.3°F-2.1°C 70% Calm Calm 0.9 mph1.4 kmh 29.97 in1014.9 mb 0.00 in0.0 mm 0.00 in/hr0.0 mm/hr 0.00 in0.0 mm
04:59 AM 36.9°F2.7°C 28.5°F-1.9°C 71% Calm Calm 0.4 mph0.6 kmh 29.97 in1014.9 mb 0.00 in0.0 mm 0.00 in/hr0.0 mm/hr 0.00 in0.0 mm
05:00 AM 36.9°F2.7°C 28.5°F-1.9°C 71% Calm Calm 0.4 mph0.6 kmh 29.97 in1014.9 mb 0.00 in0.0 mm 0.00 in/hr0.0 mm/hr 0.00 in0.0 mm
05:05 AM 37.1°F2.8°C 28.9°F-1.7°C 72% 0.6 mph SSW1.0 kmh SSW 0.9 mph1.4 kmh 29.97 in1014.9 mb 0.00 in0.0 mm 0.00 in/hr0.0 mm/hr 0.00 in0.0 mm
05:10 AM 37.3°F2.9°C 29.1°F-1.6°C 72% 0.4 mph SSW0.6 kmh SSW 0.9 mph1.4 kmh 29.96 in1014.6 mb 0.00 in0.0 mm 0.00 in/hr0.0 mm/hr 0.00 in0.0 mm
05:15 AM 37.3°F2.9°C 28.8°F-1.8°C 71% Calm Calm 0.7 mph1.1 kmh 29.96 in1014.6 mb 0.00 in0.0 mm 0.00 in/hr0.0 mm/hr 0.00 in0.0 mm
05:20 AM 37.1°F2.8°C 29.3°F-1.5°C 73% 0.9 mph SSW1.4 kmh SSW 1.1 mph1.8 kmh 29.96 in1014.6 mb 0.00 in0.0 mm 0.00 in/hr0.0 mm/hr 0.00 in0.0 mm
05:25 AM 37.1°F2.8°C 28.6°F-1.9°C 71% 0.2 mph S0.3 kmh S 1.1 mph1.8 kmh 29.96 in1014.6 mb 0.00 in0.0 mm 0.00 in/hr0.0 mm/hr 0.00 in0.0 mm
05:30 AM 37.1°F2.8°C 28.6°F-1.9°C 71% 0.4 mph SSE0.6 kmh SSE 1.1 mph1.8 kmh 29.97 in1014.9 mb 0.00 in0.0 mm 0.00 in/hr0.0 mm/hr 0.00 in0.0 mm
05:35 AM 36.7°F2.6°C 28.5°F-1.9°C 72% 0.5 mph SSE0.8 kmh SSE 1.1 mph1.8 kmh 29.97 in1014.9 mb 0.00 in0.0 mm 0.00 in/hr0.0 mm/hr 0.00 in0.0 mm
05:40 AM 36.5°F2.5°C 28.4°F-2.0°C 72% Calm Calm 1.1 mph1.8 kmh 29.98 in1015.2 mb 0.00 in0.0 mm 0.00 in/hr0.0 mm/hr 0.00 in0.0 mm
05:45 AM 36.5°F2.5°C 28.4°F-2.0°C 72% 0.4 mph WSW0.6 kmh WSW 0.7 mph1.1 kmh 29.98 in1015.2 mb 0.00 in0.0 mm 0.00 in/hr0.0 mm/hr 0.00 in0.0 mm
05:46 AM 36.5°F2.5°C 28.4°F-2.0°C 72% 0.3 mph WSW0.5 kmh WSW 0.7 mph1.1 kmh 29.98 in1015.2 mb 0.00 in0.0 mm 0.00 in/hr0.0 mm/hr 0.00 in0.0 mm
05:51 AM 36.4°F2.4°C 28.5°F-1.9°C 73% Calm Calm 0.7 mph1.1 kmh 29.98 in1015.2 mb 0.00 in0.0 mm 0.00 in/hr0.0 mm/hr 0.00 in0.0 mm
05:56 AM 36.4°F2.4°C 28.5°F-1.9°C 73% 0.6 mph WSW1.0 kmh WSW 0.9 mph1.4 kmh 29.98 in1015.2 mb 0.00 in0.0 mm 0.00 in/hr0.0 mm/hr 0.00 in0.0 mm
06:01 AM 36.4°F2.4°C 28.5°F-1.9°C 73% 0.7 mph SW1.1 kmh SW 0.9 mph1.4 kmh 29.99 in1015.6 mb 0.00 in0.0 mm 0.00 in/hr0.0 mm/hr 0.00 in0.0 mm
06:06 AM 36.4°F2.4°C 28.5°F-1.9°C 73% 1.0 mph SW1.6 kmh SW 1.3 mph2.1 kmh 29.99 in1015.6 mb 0.00 in0.0 mm 0.00 in/hr0.0 mm/hr 0.00 in0.0 mm
06:11 AM 36.4°F2.4°C 28.5°F-1.9°C 73% 1.1 mph SW1.8 kmh SW 1.3 mph2.1 kmh 29.99 in1015.6 mb 0.00 in0.0 mm 0.00 in/hr0.0 mm/hr 0.00 in0.0 mm
06:16 AM 36.4°F2.4°C 28.5°F-1.9°C 73% 1.2 mph SW1.9 kmh SW 1.6 mph2.6 kmh 30.00 in1015.9 mb 0.00 in0.0 mm 0.00 in/hr0.0 mm/hr 0.00 in0.0 mm
06:21 AM 36.4°F2.4°C 28.5°F-1.9°C 73% 0.8 mph WSW1.3 kmh WSW 2.0 mph3.2 kmh 30.00 in1015.9 mb 0.00 in0.0 mm 0.00 in/hr0.0 mm/hr 0.00 in0.0 mm
06:22 AM 36.4°F2.4°C 28.5°F-1.9°C 73% 0.8 mph WSW1.3 kmh WSW 2.0 mph3.2 kmh 30.00 in1015.9 mb 0.00 in0.0 mm 0.00 in/hr0.0 mm/hr 0.00 in0.0 mm
06:27 AM 36.4°F2.4°C 28.5°F-1.9°C 73% Calm Calm 2.0 mph3.2 kmh 30.00 in1015.9 mb 0.00 in0.0 mm 0.00 in/hr0.0 mm/hr 0.00 in0.0 mm
06:32 AM 36.4°F2.4°C 28.5°F-1.9°C 73% Calm Calm 0.7 mph1.1 kmh 29.99 in1015.6 mb 0.00 in0.0 mm 0.00 in/hr0.0 mm/hr 0.00 in0.0 mm
06:37 AM 36.4°F2.4°C 28.5°F-1.9°C 73% Calm Calm -- 29.99 in1015.6 mb 0.00 in0.0 mm 0.00 in/hr0.0 mm/hr 0.00 in0.0 mm
06:42 AM 36.4°F2.4°C 28.5°F-1.9°C 73% Calm Calm -- 30.00 in1015.9 mb 0.00 in0.0 mm 0.00 in/hr0.0 mm/hr 0.00 in0.0 mm
06:47 AM 36.4°F2.4°C 28.5°F-1.9°C 73% Calm Calm 0.4 mph0.6 kmh 30.00 in1015.9 mb 0.00 in0.0 mm 0.00 in/hr0.0 mm/hr 0.00 in0.0 mm
06:52 AM 36.4°F2.4°C 28.8°F-1.8°C 74% Calm Calm 0.4 mph0.6 kmh 30.00 in1015.9 mb 0.00 in0.0 mm 0.00 in/hr0.0 mm/hr 0.00 in0.0 mm
06:57 AM 36.7°F2.6°C 29.2°F-1.6°C 74% Calm Calm -- 30.01 in1016.3 mb 0.00 in0.0 mm 0.00 in/hr0.0 mm/hr 0.00 in0.0 mm
07:02 AM 36.7°F2.6°C 29.9°F-1.2°C 76% Calm Calm -- 30.01 in1016.3 mb 0.00 in0.0 mm 0.00 in/hr0.0 mm/hr 0.00 in0.0 mm
07:07 AM 37.1°F2.8°C 30.3°F-0.9°C 76% 0.6 mph SSW1.0 kmh SSW 1.1 mph1.8 kmh 30.01 in1016.3 mb 0.00 in0.0 mm 0.00 in/hr0.0 mm/hr 0.00 in0.0 mm
07:12 AM 37.4°F3.0°C 30.2°F-1.0°C 75% 0.7 mph SW1.1 kmh SW 1.1 mph1.8 kmh 30.01 in1016.3 mb 0.00 in0.0 mm 0.00 in/hr0.0 mm/hr 0.00 in0.0 mm
07:17 AM 37.6°F3.1°C 30.4°F-0.9°C 75% 0.6 mph WSW1.0 kmh WSW 1.1 mph1.8 kmh 30.01 in1016.3 mb 0.00 in0.0 mm 0.00 in/hr0.0 mm/hr 0.00 in0.0 mm
07:22 AM 37.8°F3.2°C 30.6°F-0.8°C 75% Calm Calm 1.1 mph1.8 kmh 30.01 in1016.3 mb 0.00 in0.0 mm 0.00 in/hr0.0 mm/hr 0.00 in0.0 mm
07:23 AM 37.6°F3.1°C 30.4°F-0.9°C 75% Calm Calm 1.1 mph1.8 kmh 30.01 in1016.3 mb 0.00 in0.0 mm 0.00 in/hr0.0 mm/hr 0.00 in0.0 mm
07:28 AM 38.0°F3.3°C 30.8°F-0.7°C 75% Calm Calm 0.2 mph0.3 kmh 30.02 in1016.6 mb 0.00 in0.0 mm 0.00 in/hr0.0 mm/hr 0.00 in0.0 mm
07:33 AM 38.5°F3.6°C 31.2°F-0.4°C 75% 0.4 mph SSE0.6 kmh SSE 0.4 mph0.6 kmh 30.02 in1016.6 mb 0.00 in0.0 mm 0.00 in/hr0.0 mm/hr 0.00 in0.0 mm
07:38 AM 39.2°F4.0°C 32.0°F0.0°C 75% Calm Calm 0.4 mph0.6 kmh 30.03 in1016.9 mb 0.00 in0.0 mm 0.00 in/hr0.0 mm/hr 0.00 in0.0 mm
07:43 AM 39.6°F4.2°C 32.0°F0.0°C 74% Calm Calm 0.4 mph0.6 kmh 30.03 in1016.9 mb 0.00 in0.0 mm 0.00 in/hr0.0 mm/hr 0.00 in0.0 mm
07:48 AM 40.0°F4.4°C 32.3°F0.2°C 74% 0.2 mph WNW0.3 kmh WNW 0.2 mph0.3 kmh 30.03 in1016.9 mb 0.00 in0.0 mm 0.00 in/hr0.0 mm/hr 0.00 in0.0 mm
07:53 AM 40.7°F4.8°C 33.0°F0.6°C 74% 0.2 mph NNW0.3 kmh NNW 0.4 mph0.6 kmh 30.04 in1017.3 mb 0.00 in0.0 mm 0.00 in/hr0.0 mm/hr 0.00 in0.0 mm
07:58 AM 41.0°F5.0°C 33.0°F0.6°C 73% 0.2 mph NW0.3 kmh NW 0.7 mph1.1 kmh 30.04 in1017.3 mb 0.00 in0.0 mm 0.00 in/hr0.0 mm/hr 0.00 in0.0 mm
08:03 AM 41.8°F5.4°C 33.8°F1.0°C 73% 0.8 mph NW1.3 kmh NW 1.3 mph2.1 kmh 30.03 in1016.9 mb 0.00 in0.0 mm 0.00 in/hr0.0 mm/hr 0.00 in0.0 mm
08:08 AM 42.3°F5.7°C 33.9°F1.1°C 72% 1.1 mph NW1.8 kmh NW 3.1 mph5.0 kmh 30.03 in1016.9 mb 0.00 in0.0 mm 0.00 in/hr0.0 mm/hr 0.00 in0.0 mm
08:13 AM 42.8°F6.0°C 34.2°F1.2°C 71% 1.5 mph W2.4 kmh W 3.1 mph5.0 kmh 30.04 in1017.3 mb 0.00 in0.0 mm 0.00 in/hr0.0 mm/hr 0.00 in0.0 mm
08:18 AM 43.6°F6.4°C 34.8°F1.6°C 71% 0.7 mph NNW1.1 kmh NNW 2.5 mph4.0 kmh 30.04 in1017.3 mb 0.00 in0.0 mm 0.00 in/hr0.0 mm/hr 0.00 in0.0 mm
08:23 AM 43.9°F6.6°C 34.8°F1.6°C 70% 1.1 mph NW1.8 kmh NW 2.7 mph4.3 kmh 30.04 in1017.3 mb 0.00 in0.0 mm 0.00 in/hr0.0 mm/hr 0.00 in0.0 mm
08:28 AM 44.3°F6.8°C 35.1°F1.7°C 70% 0.7 mph NW1.1 kmh NW 2.7 mph4.3 kmh 30.04 in1017.3 mb 0.00 in0.0 mm 0.00 in/hr0.0 mm/hr 0.00 in0.0 mm
08:29 AM 44.3°F6.8°C 35.1°F1.7°C 70% 0.8 mph NNW1.3 kmh NNW 2.7 mph4.3 kmh 30.04 in1017.3 mb 0.00 in0.0 mm 0.00 in/hr0.0 mm/hr 0.00 in0.0 mm
08:33 AM 44.6°F7.0°C 35.1°F1.7°C 69% 1.3 mph NNW2.1 kmh NNW 3.1 mph5.0 kmh 30.03 in1016.9 mb 0.00 in0.0 mm 0.00 in/hr0.0 mm/hr 0.00 in0.0 mm
08:34 AM 44.8°F7.1°C 34.9°F1.6°C 68% 1.9 mph NNW3.1 kmh NNW 3.4 mph5.5 kmh 30.03 in1016.9 mb 0.00 in0.0 mm 0.00 in/hr0.0 mm/hr 0.00 in0.0 mm
08:38 AM 45.0°F7.2°C 34.7°F1.5°C 67% 1.6 mph N2.6 kmh N 3.4 mph5.5 kmh 30.04 in1017.3 mb 0.00 in0.0 mm 0.00 in/hr0.0 mm/hr 0.00 in0.0 mm
08:39 AM 45.2°F7.3°C 34.8°F1.6°C 67% 1.4 mph N2.3 kmh N 3.4 mph5.5 kmh 30.04 in1017.3 mb 0.00 in0.0 mm 0.00 in/hr0.0 mm/hr 0.00 in0.0 mm
08:43 AM 45.4°F7.4°C 35.0°F1.7°C 67% 0.6 mph NW1.0 kmh NW 3.4 mph5.5 kmh 30.04 in1017.3 mb 0.00 in0.0 mm 0.00 in/hr0.0 mm/hr 0.00 in0.0 mm
08:44 AM 45.4°F7.4°C 35.0°F1.7°C 67% 0.6 mph WNW1.0 kmh WNW 2.7 mph4.3 kmh 30.04 in1017.3 mb 0.00 in0.0 mm 0.00 in/hr0.0 mm/hr 0.00 in0.0 mm
08:48 AM 45.5°F7.5°C 35.2°F1.8°C 67% 0.4 mph NW0.6 kmh NW 1.6 mph2.6 kmh 30.04 in1017.3 mb 0.00 in0.0 mm 0.00 in/hr0.0 mm/hr 0.00 in0.0 mm
08:49 AM 45.5°F7.5°C 35.2°F1.8°C 67% 0.4 mph NW0.6 kmh NW 1.6 mph2.6 kmh 30.04 in1017.3 mb 0.00 in0.0 mm 0.00 in/hr0.0 mm/hr 0.00 in0.0 mm
08:54 AM 45.9°F7.7°C 35.6°F2.0°C 67% 2.1 mph NNE3.4 kmh NNE 2.5 mph4.0 kmh 30.05 in1017.6 mb 0.00 in0.0 mm 0.00 in/hr0.0 mm/hr 0.00 in0.0 mm
08:59 AM 46.4°F8.0°C 36.1°F2.3°C 67% 1.3 mph N2.1 kmh N 2.5 mph4.0 kmh 30.05 in1017.6 mb 0.00 in0.0 mm 0.00 in/hr0.0 mm/hr 0.00 in0.0 mm
09:04 AM 46.8°F8.2°C 36.0°F2.2°C 66% 0.6 mph N1.0 kmh N 2.5 mph4.0 kmh 30.05 in1017.6 mb 0.00 in0.0 mm 0.00 in/hr0.0 mm/hr 0.00 in0.0 mm
09:09 AM 47.3°F8.5°C 35.7°F2.1°C 64% 1.5 mph N2.4 kmh N 2.2 mph3.5 kmh 30.05 in1017.6 mb 0.00 in0.0 mm 0.00 in/hr0.0 mm/hr 0.00 in0.0 mm
09:14 AM 47.5°F8.6°C 35.6°F2.0°C 63% 1.0 mph NNW1.6 kmh NNW 2.5 mph4.0 kmh 30.05 in1017.6 mb 0.00 in0.0 mm 0.00 in/hr0.0 mm/hr 0.00 in0.0 mm
09:19 AM 47.7°F8.7°C 35.7°F2.1°C 63% 1.3 mph W2.1 kmh W 2.5 mph4.0 kmh 30.05 in1017.6 mb 0.00 in0.0 mm 0.00 in/hr0.0 mm/hr 0.00 in0.0 mm
09:24 AM 47.9°F8.8°C 35.9°F2.2°C 63% 2.5 mph WNW4.0 kmh WNW 3.4 mph5.5 kmh 30.05 in1017.6 mb 0.00 in0.0 mm 0.00 in/hr0.0 mm/hr 0.00 in0.0 mm
09:25 AM 47.9°F8.8°C 35.9°F2.2°C 63% 2.4 mph NW3.9 kmh NW 3.4 mph5.5 kmh 30.05 in1017.6 mb 0.00 in0.0 mm 0.00 in/hr0.0 mm/hr 0.00 in0.0 mm
09:29 AM 47.9°F8.8°C 35.9°F2.2°C 63% 1.1 mph NNW1.8 kmh NNW 3.8 mph6.1 kmh 30.05 in1017.6 mb 0.00 in0.0 mm 0.00 in/hr0.0 mm/hr 0.00 in0.0 mm
09:30 AM 47.9°F8.8°C 35.9°F2.2°C 63% 1.0 mph NNW1.6 kmh NNW 3.8 mph6.1 kmh 30.05 in1017.6 mb 0.00 in0.0 mm 0.00 in/hr0.0 mm/hr 0.00 in0.0 mm
09:35 AM 48.2°F9.0°C 36.3°F2.4°C 63% 2.2 mph WNW3.5 kmh WNW 3.8 mph6.1 kmh 30.05 in1017.6 mb 0.00 in0.0 mm 0.00 in/hr0.0 mm/hr 0.00 in0.0 mm
09:40 AM 48.6°F9.2°C 36.2°F2.3°C 62% 1.9 mph NW3.1 kmh NW 3.6 mph5.8 kmh 30.05 in1017.6 mb 0.00 in0.0 mm 0.00 in/hr0.0 mm/hr 0.00 in0.0 mm
09:45 AM 49.3°F9.6°C 37.3°F2.9°C 63% 1.5 mph WSW2.4 kmh WSW 3.6 mph5.8 kmh 30.05 in1017.6 mb 0.00 in0.0 mm 0.00 in/hr0.0 mm/hr 0.00 in0.0 mm
09:50 AM 49.7°F9.8°C 36.8°F2.7°C 61% 3.4 mph WSW5.5 kmh WSW 4.5 mph7.2 kmh 30.05 in1017.6 mb 0.00 in0.0 mm 0.00 in/hr0.0 mm/hr 0.00 in0.0 mm
09:55 AM 50.4°F10.2°C 37.4°F3.0°C 61% 2.0 mph WSW3.2 kmh WSW 4.5 mph7.2 kmh 30.05 in1017.6 mb 0.00 in0.0 mm 0.00 in/hr0.0 mm/hr 0.00 in0.0 mm
10:00 AM 50.9°F10.5°C 37.1°F2.8°C 59% 1.4 mph NW2.3 kmh NW 3.6 mph5.8 kmh 30.05 in1017.6 mb 0.00 in0.0 mm 0.00 in/hr0.0 mm/hr 0.00 in0.0 mm
10:05 AM 51.5°F10.8°C 37.1°F2.8°C 58% 2.0 mph WNW3.2 kmh WNW 3.4 mph5.5 kmh 30.06 in1017.9 mb 0.00 in0.0 mm 0.00 in/hr0.0 mm/hr 0.00 in0.0 mm
10:10 AM 51.7°F10.9°C 36.8°F2.7°C 57% 1.5 mph WNW2.4 kmh WNW 2.9 mph4.7 kmh 30.06 in1017.9 mb 0.00 in0.0 mm 0.00 in/hr0.0 mm/hr 0.00 in0.0 mm
10:15 AM 52.0°F11.1°C 37.6°F3.1°C 58% 0.8 mph NW1.3 kmh NW 2.5 mph4.0 kmh 30.06 in1017.9 mb 0.00 in0.0 mm 0.00 in/hr0.0 mm/hr 0.00 in0.0 mm
10:20 AM 52.4°F11.3°C 37.1°F2.8°C 56% 1.7 mph NW2.7 kmh NW 4.7 mph7.6 kmh 30.06 in1017.9 mb 0.00 in0.0 mm 0.00 in/hr0.0 mm/hr 0.00 in0.0 mm
10:25 AM 53.1°F11.7°C 37.7°F3.2°C 56% 1.9 mph NNE3.1 kmh NNE 4.7 mph7.6 kmh 30.06 in1017.9 mb 0.00 in0.0 mm 0.00 in/hr0.0 mm/hr 0.00 in0.0 mm
10:30 AM 53.5°F11.9°C 37.6°F3.1°C 55% 1.2 mph NW1.9 kmh NW 3.8 mph6.1 kmh 30.06 in1017.9 mb 0.00 in0.0 mm 0.00 in/hr0.0 mm/hr 0.00 in0.0 mm
10:35 AM 53.6°F12.0°C 35.9°F2.2°C 51% 3.0 mph NNW4.8 kmh NNW 4.0 mph6.4 kmh 30.06 in1017.9 mb 0.00 in0.0 mm 0.00 in/hr0.0 mm/hr 0.00 in0.0 mm
10:36 AM 53.6°F12.0°C 36.4°F2.4°C 52% 2.8 mph NNW4.5 kmh NNW 4.0 mph6.4 kmh 30.06 in1017.9 mb 0.00 in0.0 mm 0.00 in/hr0.0 mm/hr 0.00 in0.0 mm
10:40 AM 53.6°F12.0°C 36.4°F2.4°C 52% 2.8 mph N4.5 kmh N 5.8 mph9.3 kmh 30.06 in1017.9 mb 0.00 in0.0 mm 0.00 in/hr0.0 mm/hr 0.00 in0.0 mm
10:41 AM 53.8°F12.1°C 36.1°F2.3°C 51% 2.7 mph N4.3 kmh N 5.8 mph9.3 kmh 30.06 in1017.9 mb 0.00 in0.0 mm 0.00 in/hr0.0 mm/hr 0.00 in0.0 mm
10:46 AM 53.8°F12.1°C 36.5°F2.5°C 52% 2.1 mph W3.4 kmh W 5.8 mph9.3 kmh 30.05 in1017.6 mb 0.00 in0.0 mm 0.00 in/hr0.0 mm/hr 0.00 in0.0 mm
10:51 AM 54.2°F12.3°C 35.4°F1.9°C 49% 1.7 mph NNE2.7 kmh NNE 4.0 mph6.4 kmh 30.05 in1017.6 mb 0.00 in0.0 mm 0.00 in/hr0.0 mm/hr 0.00 in0.0 mm
10:56 AM 54.5°F12.5°C 34.0°F1.1°C 46% 2.4 mph NNW3.9 kmh NNW 6.0 mph9.7 kmh 30.05 in1017.6 mb 0.00 in0.0 mm 0.00 in/hr0.0 mm/hr 0.00 in0.0 mm
11:01 AM 55.1°F12.8°C 35.6°F2.0°C 48% 1.9 mph NNE3.1 kmh NNE 6.0 mph9.7 kmh 30.05 in1017.6 mb 0.00 in0.0 mm 0.00 in/hr0.0 mm/hr 0.00 in0.0 mm
11:06 AM 55.6°F13.1°C 36.2°F2.3°C 48% 2.0 mph W3.2 kmh W 4.0 mph6.4 kmh 30.05 in1017.6 mb 0.00 in0.0 mm 0.00 in/hr0.0 mm/hr 0.00 in0.0 mm
11:11 AM 56.0°F13.3°C 35.4°F1.9°C 46% 2.5 mph W4.0 kmh W 4.9 mph7.9 kmh 30.05 in1017.6 mb 0.00 in0.0 mm 0.00 in/hr0.0 mm/hr 0.00 in0.0 mm
11:16 AM 55.8°F13.2°C 32.9°F0.5°C 42% 2.3 mph N3.7 kmh N 4.9 mph7.9 kmh 30.05 in1017.6 mb 0.00 in0.0 mm 0.00 in/hr0.0 mm/hr 0.00 in0.0 mm
11:21 AM 56.2°F13.4°C 33.8°F1.0°C 43% 2.6 mph NNW4.2 kmh NNW 4.7 mph7.6 kmh 30.05 in1017.6 mb 0.00 in0.0 mm 0.00 in/hr0.0 mm/hr 0.00 in0.0 mm
11:26 AM 56.3°F13.5°C 35.1°F1.7°C 45% 2.1 mph NW3.4 kmh NW 4.7 mph7.6 kmh 30.05 in1017.6 mb 0.00 in0.0 mm 0.00 in/hr0.0 mm/hr 0.00 in0.0 mm
11:27 AM 56.5°F13.6°C 35.3°F1.8°C 45% 1.7 mph NW2.7 kmh NW 4.7 mph7.6 kmh 30.05 in1017.6 mb 0.00 in0.0 mm 0.00 in/hr0.0 mm/hr 0.00 in0.0 mm
11:31 AM 56.5°F13.6°C 35.3°F1.8°C 45% 1.4 mph NW2.3 kmh NW 4.3 mph6.9 kmh 30.05 in1017.6 mb 0.00 in0.0 mm 0.00 in/hr0.0 mm/hr 0.00 in0.0 mm
11:32 AM 56.7°F13.7°C 35.5°F1.9°C 45% 1.4 mph NNW2.3 kmh NNW 4.3 mph6.9 kmh 30.05 in1017.6 mb 0.00 in0.0 mm 0.00 in/hr0.0 mm/hr 0.00 in0.0 mm
11:36 AM 56.9°F13.8°C 35.6°F2.0°C 45% 3.1 mph NE5.0 kmh NE 4.3 mph6.9 kmh 30.05 in1017.6 mb 0.00 in0.0 mm 0.00 in/hr0.0 mm/hr 0.00 in0.0 mm
11:37 AM 56.9°F13.8°C 35.6°F2.0°C 45% 3.3 mph NNE5.3 kmh NNE 4.5 mph7.2 kmh 30.05 in1017.6 mb 0.00 in0.0 mm 0.00 in/hr0.0 mm/hr 0.00 in0.0 mm
11:41 AM 56.9°F13.8°C 35.6°F2.0°C 45% 2.6 mph NE4.2 kmh NE 4.5 mph7.2 kmh 30.05 in1017.6 mb 0.00 in0.0 mm 0.00 in/hr0.0 mm/hr 0.00 in0.0 mm
11:42 AM 56.9°F13.8°C 35.6°F2.0°C 45% 3.2 mph NE5.1 kmh NE 4.5 mph7.2 kmh 30.05 in1017.6 mb 0.00 in0.0 mm 0.00 in/hr0.0 mm/hr 0.00 in0.0 mm
11:45 AM 57.1°F13.9°C 35.8°F2.1°C 45% 3.2 mph NNE5.1 kmh NNE 4.5 mph7.2 kmh 30.05 in1017.6 mb 0.00 in0.0 mm 0.00 in/hr0.0 mm/hr 0.00 in0.0 mm
11:46 AM 57.1°F13.9°C 35.3°F1.8°C 44% 2.9 mph N4.7 kmh N 4.5 mph7.2 kmh 30.05 in1017.6 mb 0.00 in0.0 mm 0.00 in/hr0.0 mm/hr 0.00 in0.0 mm
11:50 AM 57.2°F14.0°C 36.5°F2.5°C 46% 1.0 mph NW1.6 kmh NW 4.5 mph7.2 kmh 30.05 in1017.6 mb 0.00 in0.0 mm 0.00 in/hr0.0 mm/hr 0.00 in0.0 mm
11:51 AM 57.2°F14.0°C 36.0°F2.2°C 45% 1.9 mph NW3.1 kmh NW 4.5 mph7.2 kmh 30.05 in1017.6 mb 0.00 in0.0 mm 0.00 in/hr0.0 mm/hr 0.00 in0.0 mm
11:55 AM 57.4°F14.1°C 35.0°F1.7°C 43% 2.2 mph N3.5 kmh N 4.0 mph6.4 kmh 30.05 in1017.6 mb 0.00 in0.0 mm 0.00 in/hr0.0 mm/hr 0.00 in0.0 mm
11:56 AM 57.6°F14.2°C 34.6°F1.4°C 42% 3.0 mph N4.8 kmh N 4.7 mph7.6 kmh 30.05 in1017.6 mb 0.00 in0.0 mm 0.00 in/hr0.0 mm/hr 0.00 in0.0 mm
12:00 PM 57.6°F14.2°C 35.7°F2.1°C 44% 0.5 mph NW0.8 kmh NW 4.7 mph7.6 kmh 30.04 in1017.3 mb 0.00 in0.0 mm 0.00 in/hr0.0 mm/hr 0.00 in0.0 mm
12:01 PM 57.6°F14.2°C 35.7°F2.1°C 44% 0.6 mph W1.0 kmh W 4.7 mph7.6 kmh 30.04 in1017.3 mb 0.00 in0.0 mm 0.00 in/hr0.0 mm/hr 0.00 in0.0 mm
12:05 PM 58.0°F14.4°C 35.5°F1.9°C 43% 2.4 mph NE3.9 kmh NE 4.7 mph7.6 kmh 30.05 in1017.6 mb 0.00 in0.0 mm 0.00 in/hr0.0 mm/hr 0.00 in0.0 mm
12:06 PM 58.0°F14.4°C 35.5°F1.9°C 43% 2.2 mph NE3.5 kmh NE 3.8 mph6.1 kmh 30.05 in1017.6 mb 0.00 in0.0 mm 0.00 in/hr0.0 mm/hr 0.00 in0.0 mm
12:10 PM 58.5°F14.7°C 36.0°F2.2°C 43% 1.4 mph NW2.3 kmh NW 3.8 mph6.1 kmh 30.05 in1017.6 mb 0.00 in0.0 mm 0.00 in/hr0.0 mm/hr 0.00 in0.0 mm
12:11 PM 58.7°F14.8°C 36.7°F2.6°C 44% 1.3 mph NW2.1 kmh NW 3.8 mph6.1 kmh 30.04 in1017.3 mb 0.00 in0.0 mm 0.00 in/hr0.0 mm/hr 0.00 in0.0 mm
12:15 PM 59.2°F15.1°C 37.2°F2.9°C 44% 1.0 mph NNW1.6 kmh NNW 2.2 mph3.5 kmh 30.04 in1017.3 mb 0.00 in0.0 mm 0.00 in/hr0.0 mm/hr 0.00 in0.0 mm
12:16 PM 59.4°F15.2°C 36.2°F2.3°C 42% 1.5 mph N2.4 kmh N 3.4 mph5.5 kmh 30.05 in1017.6 mb 0.00 in0.0 mm 0.00 in/hr0.0 mm/hr 0.00 in0.0 mm
12:21 PM 59.8°F15.4°C 34.7°F1.5°C 39% 3.1 mph NNW5.0 kmh NNW 4.5 mph7.2 kmh 30.05 in1017.6 mb 0.00 in0.0 mm 0.00 in/hr0.0 mm/hr 0.00 in0.0 mm
12:26 PM 59.8°F15.4°C 36.0°F2.2°C 41% 1.7 mph NE2.7 kmh NE 4.5 mph7.2 kmh 30.05 in1017.6 mb 0.00 in0.0 mm 0.00 in/hr0.0 mm/hr 0.00 in0.0 mm
12:31 PM 59.8°F15.4°C 36.0°F2.2°C 41% 3.6 mph NNE5.8 kmh NNE 4.5 mph7.2 kmh 30.05 in1017.6 mb 0.00 in0.0 mm 0.00 in/hr0.0 mm/hr 0.00 in0.0 mm
12:36 PM 60.5°F15.8°C 36.0°F2.2°C 40% 0.6 mph WNW1.0 kmh WNW 4.5 mph7.2 kmh 30.05 in1017.6 mb 0.00 in0.0 mm 0.00 in/hr0.0 mm/hr 0.00 in0.0 mm
12:37 PM 60.5°F15.8°C 36.0°F2.2°C 40% 0.8 mph NW1.3 kmh NW 4.5 mph7.2 kmh 30.05 in1017.6 mb 0.00 in0.0 mm 0.00 in/hr0.0 mm/hr 0.00 in0.0 mm
12:41 PM 60.8°F16.0°C 35.6°F2.0°C 39% 1.2 mph N1.9 kmh N 4.5 mph7.2 kmh 30.05 in1017.6 mb 0.00 in0.0 mm 0.00 in/hr0.0 mm/hr 0.00 in0.0 mm
12:42 PM 60.8°F16.0°C 35.6°F2.0°C 39% 1.1 mph N1.8 kmh N 4.5 mph7.2 kmh 30.05 in1017.6 mb 0.00 in0.0 mm 0.00 in/hr0.0 mm/hr 0.00 in0.0 mm
12:46 PM 60.7°F15.9°C 35.5°F1.9°C 39% 2.2 mph NE3.5 kmh NE 2.9 mph4.7 kmh 30.04 in1017.3 mb 0.00 in0.0 mm 0.00 in/hr0.0 mm/hr 0.00 in0.0 mm
12:47 PM 60.7°F15.9°C 35.5°F1.9°C 39% 1.9 mph NE3.1 kmh NE 2.9 mph4.7 kmh 30.04 in1017.3 mb 0.00 in0.0 mm 0.00 in/hr0.0 mm/hr 0.00 in0.0 mm
12:51 PM 60.7°F15.9°C 36.2°F2.3°C 40% 1.1 mph NE1.8 kmh NE 2.9 mph4.7 kmh 30.04 in1017.3 mb 0.00 in0.0 mm 0.00 in/hr0.0 mm/hr 0.00 in0.0 mm
12:52 PM 60.7°F15.9°C 35.5°F1.9°C 39% 1.0 mph ENE1.6 kmh ENE 2.9 mph4.7 kmh 30.04 in1017.3 mb 0.00 in0.0 mm 0.00 in/hr0.0 mm/hr 0.00 in0.0 mm
12:56 PM 60.5°F15.8°C 36.0°F2.2°C 40% 0.8 mph SE1.3 kmh SE 2.5 mph4.0 kmh 30.04 in1017.3 mb 0.00 in0.0 mm 0.00 in/hr0.0 mm/hr 0.00 in0.0 mm
12:57 PM 60.7°F15.9°C 36.2°F2.3°C 40% 1.2 mph N1.9 kmh N 2.9 mph4.7 kmh 30.04 in1017.3 mb 0.00 in0.0 mm 0.00 in/hr0.0 mm/hr 0.00 in0.0 mm
01:01 PM 60.7°F15.9°C 34.0°F1.1°C 37% 6.2 mph N10.0 kmh N 7.6 mph12.2 kmh 30.04 in1017.3 mb 0.00 in0.0 mm 0.00 in/hr0.0 mm/hr 0.00 in0.0 mm
01:02 PM 60.5°F15.8°C 34.6°F1.4°C 38% 5.9 mph N9.5 kmh N 7.6 mph12.2 kmh 30.04 in1017.3 mb 0.00 in0.0 mm 0.00 in/hr0.0 mm/hr 0.00 in0.0 mm
01:06 PM 60.8°F16.0°C 34.9°F1.6°C 38% 2.3 mph N3.7 kmh N 7.6 mph12.2 kmh 30.04 in1017.3 mb 0.00 in0.0 mm 0.00 in/hr0.0 mm/hr 0.00 in0.0 mm
01:07 PM 60.7°F15.9°C 34.0°F1.1°C 37% 2.8 mph NE4.5 kmh NE 7.6 mph12.2 kmh 30.04 in1017.3 mb 0.00 in0.0 mm 0.00 in/hr0.0 mm/hr 0.00 in0.0 mm
01:11 PM 60.8°F16.0°C 34.2°F1.2°C 37% 2.0 mph NE3.2 kmh NE 6.9 mph11.1 kmh 30.04 in1017.3 mb 0.00 in0.0 mm 0.00 in/hr0.0 mm/hr 0.00 in0.0 mm
01:12 PM 61.0°F16.1°C 35.1°F1.7°C 38% 2.6 mph NE4.2 kmh NE 6.9 mph11.1 kmh 30.04 in1017.3 mb 0.00 in0.0 mm 0.00 in/hr0.0 mm/hr 0.00 in0.0 mm
01:16 PM 61.4°F16.3°C 34.7°F1.5°C 37% 3.0 mph NNE4.8 kmh NNE 6.0 mph9.7 kmh 30.04 in1017.3 mb 0.00 in0.0 mm 0.00 in/hr0.0 mm/hr 0.00 in0.0 mm
01:17 PM 61.4°F16.3°C 33.9°F1.1°C 36% 4.3 mph NE6.9 kmh NE 7.6 mph12.2 kmh 30.04 in1017.3 mb 0.00 in0.0 mm 0.00 in/hr0.0 mm/hr 0.00 in0.0 mm
01:21 PM 61.6°F16.4°C 34.1°F1.2°C 36% 3.7 mph NE6.0 kmh NE 7.6 mph12.2 kmh 30.04 in1017.3 mb 0.00 in0.0 mm 0.00 in/hr0.0 mm/hr 0.00 in0.0 mm
01:22 PM 61.6°F16.4°C 34.8°F1.6°C 37% 3.2 mph NE5.1 kmh NE 7.6 mph12.2 kmh 30.04 in1017.3 mb 0.00 in0.0 mm 0.00 in/hr0.0 mm/hr 0.00 in0.0 mm
01:26 PM 61.6°F16.4°C 34.8°F1.6°C 37% 2.1 mph E3.4 kmh E 7.6 mph12.2 kmh 30.04 in1017.3 mb 0.00 in0.0 mm 0.00 in/hr0.0 mm/hr 0.00 in0.0 mm
01:27 PM 61.7°F16.5°C 35.0°F1.7°C 37% 1.2 mph SE1.9 kmh SE 6.7 mph10.8 kmh 30.04 in1017.3 mb 0.00 in0.0 mm 0.00 in/hr0.0 mm/hr 0.00 in0.0 mm
01:31 PM 62.1°F16.7°C 34.7°F1.5°C 36% 3.1 mph NE5.0 kmh NE 4.9 mph7.9 kmh 30.03 in1016.9 mb 0.00 in0.0 mm 0.00 in/hr0.0 mm/hr 0.00 in0.0 mm
01:32 PM 62.3°F16.8°C 34.7°F1.5°C 36% 3.9 mph NE6.3 kmh NE 6.9 mph11.1 kmh 30.04 in1017.3 mb 0.00 in0.0 mm 0.00 in/hr0.0 mm/hr 0.00 in0.0 mm
01:36 PM 62.3°F16.8°C 35.5°F1.9°C 37% 0.9 mph E1.4 kmh E 6.9 mph11.1 kmh 30.03 in1016.9 mb 0.00 in0.0 mm 0.00 in/hr0.0 mm/hr 0.00 in0.0 mm
01:37 PM 62.5°F16.9°C 35.6°F2.0°C 37% 1.5 mph N2.4 kmh N 6.9 mph11.1 kmh 30.03 in1016.9 mb 0.00 in0.0 mm 0.00 in/hr0.0 mm/hr 0.00 in0.0 mm
01:42 PM 62.5°F16.9°C 33.5°F0.8°C 34% 4.0 mph N6.4 kmh N 6.9 mph11.1 kmh 30.03 in1016.9 mb 0.00 in0.0 mm 0.00 in/hr0.0 mm/hr 0.00 in0.0 mm
01:47 PM 62.3°F16.8°C 33.3°F0.7°C 34% 1.0 mph E1.6 kmh E 6.0 mph9.7 kmh 30.03 in1016.9 mb 0.00 in0.0 mm 0.00 in/hr0.0 mm/hr 0.00 in0.0 mm
01:52 PM 62.8°F17.1°C 32.4°F0.2°C 32% 2.7 mph SE4.3 kmh SE 4.0 mph6.4 kmh 30.03 in1016.9 mb 0.00 in0.0 mm 0.00 in/hr0.0 mm/hr 0.00 in0.0 mm
01:57 PM 63.0°F17.2°C 33.3°F0.7°C 33% 3.6 mph NE5.8 kmh NE 6.7 mph10.8 kmh 30.03 in1016.9 mb 0.00 in0.0 mm 0.00 in/hr0.0 mm/hr 0.00 in0.0 mm
01:58 PM 63.0°F17.2°C 32.6°F0.3°C 32% 4.1 mph NE6.6 kmh NE 6.7 mph10.8 kmh 30.03 in1016.9 mb 0.00 in0.0 mm 0.00 in/hr0.0 mm/hr 0.00 in0.0 mm
02:02 PM 63.0°F17.2°C 33.3°F0.7°C 33% 3.3 mph ENE5.3 kmh ENE 6.7 mph10.8 kmh 30.03 in1016.9 mb 0.00 in0.0 mm 0.00 in/hr0.0 mm/hr 0.00 in0.0 mm
02:03 PM 63.0°F17.2°C 33.3°F0.7°C 33% 2.5 mph ENE4.0 kmh ENE 6.7 mph10.8 kmh 30.03 in1016.9 mb 0.00 in0.0 mm 0.00 in/hr0.0 mm/hr 0.00 in0.0 mm
02:07 PM 63.2°F17.3°C 32.7°F0.4°C 32% 2.5 mph NE4.0 kmh NE 6.3 mph10.1 kmh 30.03 in1016.9 mb 0.00 in0.0 mm 0.00 in/hr0.0 mm/hr 0.00 in0.0 mm
02:08 PM 63.4°F17.4°C 32.1°F0.1°C 31% 2.1 mph NE3.4 kmh NE 6.3 mph10.1 kmh 30.03 in1016.9 mb 0.00 in0.0 mm 0.00 in/hr0.0 mm/hr 0.00 in0.0 mm
02:12 PM 63.0°F17.2°C 31.9°F-0.1°C 31% 5.1 mph N8.2 kmh N 7.2 mph11.6 kmh 30.03 in1016.9 mb 0.00 in0.0 mm 0.00 in/hr0.0 mm/hr 0.00 in0.0 mm
02:13 PM 63.0°F17.2°C 31.9°F-0.1°C 31% 3.5 mph N5.6 kmh N 7.2 mph11.6 kmh 30.03 in1016.9 mb 0.00 in0.0 mm 0.00 in/hr0.0 mm/hr 0.00 in0.0 mm
02:17 PM 63.0°F17.2°C 31.9°F-0.1°C 31% 0.8 mph WNW1.3 kmh WNW 7.2 mph11.6 kmh 30.03 in1016.9 mb 0.00 in0.0 mm 0.00 in/hr0.0 mm/hr 0.00 in0.0 mm
02:18 PM 63.0°F17.2°C 32.6°F0.3°C 32% 1.1 mph WNW1.8 kmh WNW 7.2 mph11.6 kmh 30.03 in1016.9 mb 0.00 in0.0 mm 0.00 in/hr0.0 mm/hr 0.00 in0.0 mm
02:22 PM 62.8°F17.1°C 32.4°F0.2°C 32% 3.0 mph N4.8 kmh N 6.7 mph10.8 kmh 30.03 in1016.9 mb 0.00 in0.0 mm 0.00 in/hr0.0 mm/hr 0.00 in0.0 mm
02:23 PM 62.8°F17.1°C 32.4°F0.2°C 32% 3.9 mph N6.3 kmh N 6.7 mph10.8 kmh 30.03 in1016.9 mb 0.00 in0.0 mm 0.00 in/hr0.0 mm/hr 0.00 in0.0 mm
02:27 PM 62.5°F16.9°C 31.3°F-0.4°C 31% 3.3 mph ENE5.3 kmh ENE 6.7 mph10.8 kmh 30.03 in1016.9 mb 0.00 in0.0 mm 0.00 in/hr0.0 mm/hr 0.00 in0.0 mm
02:28 PM 62.5°F16.9°C 31.3°F-0.4°C 31% 3.1 mph E5.0 kmh E 6.7 mph10.8 kmh 30.03 in1016.9 mb 0.00 in0.0 mm 0.00 in/hr0.0 mm/hr 0.00 in0.0 mm
02:32 PM 62.3°F16.8°C 31.9°F-0.1°C 32% 2.0 mph NNE3.2 kmh NNE 5.6 mph9.0 kmh 30.03 in1016.9 mb 0.00 in0.0 mm 0.00 in/hr0.0 mm/hr 0.00 in0.0 mm
02:33 PM 62.3°F16.8°C 31.9°F-0.1°C 32% 2.3 mph NE3.7 kmh NE 5.6 mph9.0 kmh 30.03 in1016.9 mb 0.00 in0.0 mm 0.00 in/hr0.0 mm/hr 0.00 in0.0 mm
02:37 PM 61.9°F16.6°C 29.2°F-1.6°C 29% 4.0 mph NE6.4 kmh NE 5.4 mph8.7 kmh 30.03 in1016.9 mb 0.00 in0.0 mm 0.00 in/hr0.0 mm/hr 0.00 in0.0 mm
02:38 PM 61.7°F16.5°C 29.0°F-1.7°C 29% 3.1 mph NE5.0 kmh NE 5.4 mph8.7 kmh 30.03 in1016.9 mb 0.00 in0.0 mm 0.00 in/hr0.0 mm/hr 0.00 in0.0 mm
02:42 PM 61.2°F16.2°C 28.5°F-1.9°C 29% 4.5 mph NE7.2 kmh NE 6.9 mph11.1 kmh 30.03 in1016.9 mb 0.00 in0.0 mm 0.00 in/hr0.0 mm/hr 0.00 in0.0 mm
02:43 PM 61.0°F16.1°C 29.4°F-1.4°C 30% 4.6 mph NE7.4 kmh NE 6.9 mph11.1 kmh 30.03 in1016.9 mb 0.00 in0.0 mm 0.00 in/hr0.0 mm/hr 0.00 in0.0 mm
02:47 PM 60.7°F15.9°C 29.0°F-1.7°C 30% 4.5 mph N7.2 kmh N 8.3 mph13.4 kmh 30.03 in1016.9 mb 0.00 in0.0 mm 0.00 in/hr0.0 mm/hr 0.00 in0.0 mm
02:48 PM 60.7°F15.9°C 29.7°F-1.3°C 31% 4.4 mph NNE7.1 kmh NNE 8.3 mph13.4 kmh 30.03 in1016.9 mb 0.00 in0.0 mm 0.00 in/hr0.0 mm/hr 0.00 in0.0 mm
02:53 PM 60.3°F15.7°C 29.4°F-1.4°C 31% 4.5 mph NNE7.2 kmh NNE 8.3 mph13.4 kmh 30.03 in1016.9 mb 0.00 in0.0 mm 0.00 in/hr0.0 mm/hr 0.00 in0.0 mm
02:58 PM 59.9°F15.5°C 29.2°F-1.6°C 31% 3.5 mph N5.6 kmh N 6.9 mph11.1 kmh 30.04 in1017.3 mb 0.00 in0.0 mm 0.00 in/hr0.0 mm/hr 0.00 in0.0 mm
03:03 PM 59.8°F15.4°C 30.4°F-0.9°C 33% 3.9 mph NE6.3 kmh NE 7.6 mph12.2 kmh 30.04 in1017.3 mb 0.00 in0.0 mm 0.00 in/hr0.0 mm/hr 0.00 in0.0 mm
03:04 PM 59.8°F15.4°C 29.7°F-1.3°C 32% 2.7 mph NE4.3 kmh NE 7.6 mph12.2 kmh 30.04 in1017.3 mb 0.00 in0.0 mm 0.00 in/hr0.0 mm/hr 0.00 in0.0 mm
03:08 PM 59.8°F15.4°C 30.4°F-0.9°C 33% 1.1 mph NW1.8 kmh NW 7.6 mph12.2 kmh 30.03 in1016.9 mb 0.00 in0.0 mm 0.00 in/hr0.0 mm/hr 0.00 in0.0 mm
03:09 PM 59.8°F15.4°C 29.7°F-1.3°C 32% 1.2 mph NW1.9 kmh NW 7.6 mph12.2 kmh 30.04 in1017.3 mb 0.00 in0.0 mm 0.00 in/hr0.0 mm/hr 0.00 in0.0 mm
03:13 PM 59.8°F15.4°C 28.3°F-2.1°C 30% 2.2 mph N3.5 kmh N 6.3 mph10.1 kmh 30.04 in1017.3 mb 0.00 in0.0 mm 0.00 in/hr0.0 mm/hr 0.00 in0.0 mm
03:14 PM 59.8°F15.4°C 29.0°F-1.7°C 31% 2.8 mph N4.5 kmh N 6.3 mph10.1 kmh 30.04 in1017.3 mb 0.00 in0.0 mm 0.00 in/hr0.0 mm/hr 0.00 in0.0 mm
03:18 PM 59.6°F15.3°C 29.6°F-1.3°C 32% 1.6 mph NW2.6 kmh NW 6.3 mph10.1 kmh 30.04 in1017.3 mb 0.00 in0.0 mm 0.00 in/hr0.0 mm/hr 0.00 in0.0 mm
03:19 PM 59.6°F15.3°C 29.6°F-1.3°C 32% 1.2 mph NW1.9 kmh NW 6.3 mph10.1 kmh 30.03 in1016.9 mb 0.00 in0.0 mm 0.00 in/hr0.0 mm/hr 0.00 in0.0 mm
03:23 PM 59.8°F15.4°C 30.4°F-0.9°C 33% 3.3 mph NE5.3 kmh NE 5.4 mph8.7 kmh 30.04 in1017.3 mb 0.00 in0.0 mm 0.00 in/hr0.0 mm/hr 0.00 in0.0 mm
03:24 PM 59.8°F15.4°C 30.4°F-0.9°C 33% 3.2 mph NE5.1 kmh NE 5.4 mph8.7 kmh 30.04 in1017.3 mb 0.00 in0.0 mm 0.00 in/hr0.0 mm/hr 0.00 in0.0 mm
03:28 PM 59.9°F15.5°C 29.9°F-1.2°C 32% 2.2 mph N3.5 kmh N 5.4 mph8.7 kmh 30.04 in1017.3 mb 0.00 in0.0 mm 0.00 in/hr0.0 mm/hr 0.00 in0.0 mm
03:29 PM 59.9°F15.5°C 30.6°F-0.8°C 33% 2.0 mph NNW3.2 kmh NNW 5.4 mph8.7 kmh 30.04 in1017.3 mb 0.00 in0.0 mm 0.00 in/hr0.0 mm/hr 0.00 in0.0 mm
03:34 PM 59.9°F15.5°C 30.6°F-0.8°C 33% 0.8 mph NW1.3 kmh NW 4.9 mph7.9 kmh 30.04 in1017.3 mb 0.00 in0.0 mm 0.00 in/hr0.0 mm/hr 0.00 in0.0 mm
03:39 PM 59.9°F15.5°C 30.6°F-0.8°C 33% 1.0 mph E1.6 kmh E 4.7 mph7.6 kmh 30.04 in1017.3 mb 0.00 in0.0 mm 0.00 in/hr0.0 mm/hr 0.00 in0.0 mm
03:43 PM 59.9°F15.5°C 30.6°F-0.8°C 33% 3.7 mph NNE6.0 kmh NNE 5.4 mph8.7 kmh 30.04 in1017.3 mb 0.00 in0.0 mm 0.00 in/hr0.0 mm/hr 0.00 in0.0 mm
03:48 PM 59.6°F15.3°C 30.2°F-1.0°C 33% 7.2 mph NE11.6 kmh NE 8.9 mph14.3 kmh 30.04 in1017.3 mb 0.00 in0.0 mm 0.00 in/hr0.0 mm/hr 0.00 in0.0 mm
03:49 PM 59.4°F15.2°C 30.9°F-0.6°C 34% 5.7 mph NE9.2 kmh NE 8.9 mph14.3 kmh 30.04 in1017.3 mb 0.00 in0.0 mm 0.00 in/hr0.0 mm/hr 0.00 in0.0 mm
03:53 PM 59.0°F15.0°C 30.5°F-0.8°C 34% 4.8 mph NE7.7 kmh NE 8.9 mph14.3 kmh 30.04 in1017.3 mb 0.00 in0.0 mm 0.00 in/hr0.0 mm/hr 0.00 in0.0 mm
03:54 PM 58.9°F14.9°C 31.1°F-0.5°C 35% 5.5 mph NNE8.9 kmh NNE 8.9 mph14.3 kmh 30.04 in1017.3 mb 0.00 in0.0 mm 0.00 in/hr0.0 mm/hr 0.00 in0.0 mm
03:58 PM 58.7°F14.8°C 30.3°F-0.9°C 34% 3.8 mph NE6.1 kmh NE 6.7 mph10.8 kmh 30.04 in1017.3 mb 0.00 in0.0 mm 0.00 in/hr0.0 mm/hr 0.00 in0.0 mm
03:59 PM 58.7°F14.8°C 30.3°F-0.9°C 34% 4.0 mph NE6.4 kmh NE 6.7 mph10.8 kmh 30.04 in1017.3 mb 0.00 in0.0 mm 0.00 in/hr0.0 mm/hr 0.00 in0.0 mm
04:03 PM 58.5°F14.7°C 29.3°F-1.5°C 33% 3.1 mph NE5.0 kmh NE 6.0 mph9.7 kmh 30.03 in1016.9 mb 0.00 in0.0 mm 0.00 in/hr0.0 mm/hr 0.00 in0.0 mm
04:04 PM 58.5°F14.7°C 29.3°F-1.5°C 33% 3.1 mph NE5.0 kmh NE 5.1 mph8.2 kmh 30.04 in1017.3 mb 0.00 in0.0 mm 0.00 in/hr0.0 mm/hr 0.00 in0.0 mm
04:08 PM 58.7°F14.8°C 29.5°F-1.4°C 33% 1.8 mph NE2.9 kmh NE 4.7 mph7.6 kmh 30.04 in1017.3 mb 0.00 in0.0 mm 0.00 in/hr0.0 mm/hr 0.00 in0.0 mm
04:09 PM 58.7°F14.8°C 29.5°F-1.4°C 33% 1.2 mph NE1.9 kmh NE 4.7 mph7.6 kmh 30.04 in1017.3 mb 0.00 in0.0 mm 0.00 in/hr0.0 mm/hr 0.00 in0.0 mm
04:13 PM 58.7°F14.8°C 30.3°F-0.9°C 34% 2.3 mph N3.7 kmh N 5.4 mph8.7 kmh 30.03 in1016.9 mb 0.00 in0.0 mm 0.00 in/hr0.0 mm/hr 0.00 in0.0 mm
04:14 PM 58.7°F14.8°C 30.3°F-0.9°C 34% 1.5 mph N2.4 kmh N 5.4 mph8.7 kmh 30.03 in1016.9 mb 0.00 in0.0 mm 0.00 in/hr0.0 mm/hr 0.00 in0.0 mm
04:18 PM 58.9°F14.9°C 31.1°F-0.5°C 35% 0.8 mph NE1.3 kmh NE 5.4 mph8.7 kmh 30.03 in1016.9 mb 0.00 in0.0 mm 0.00 in/hr0.0 mm/hr 0.00 in0.0 mm
04:19 PM 58.9°F14.9°C 31.8°F-0.1°C 36% 1.2 mph NE1.9 kmh NE 5.4 mph8.7 kmh 30.03 in1016.9 mb 0.00 in0.0 mm 0.00 in/hr0.0 mm/hr 0.00 in0.0 mm
04:23 PM 59.0°F15.0°C 31.2°F-0.4°C 35% 2.4 mph E3.9 kmh E 5.4 mph8.7 kmh 30.03 in1016.9 mb 0.00 in0.0 mm 0.00 in/hr0.0 mm/hr 0.00 in0.0 mm
04:24 PM 58.9°F14.9°C 31.8°F-0.1°C 36% 2.1 mph E3.4 kmh E 5.4 mph8.7 kmh 30.03 in1016.9 mb 0.00 in0.0 mm 0.00 in/hr0.0 mm/hr 0.00 in0.0 mm
04:28 PM 58.9°F14.9°C 31.1°F-0.5°C 35% 3.0 mph N4.8 kmh N 5.4 mph8.7 kmh 30.03 in1016.9 mb 0.00 in0.0 mm 0.00 in/hr0.0 mm/hr 0.00 in0.0 mm
04:29 PM 58.7°F14.8°C 31.6°F-0.2°C 36% 1.5 mph N2.4 kmh N 5.4 mph8.7 kmh 30.03 in1016.9 mb 0.00 in0.0 mm 0.00 in/hr0.0 mm/hr 0.00 in0.0 mm
04:33 PM 58.7°F14.8°C 31.6°F-0.2°C 36% 3.8 mph N6.1 kmh N 6.0 mph9.7 kmh 30.04 in1017.3 mb 0.00 in0.0 mm 0.00 in/hr0.0 mm/hr 0.00 in0.0 mm
04:35 PM 58.7°F14.8°C 31.6°F-0.2°C 36% 4.5 mph N7.2 kmh N 6.0 mph9.7 kmh 30.04 in1017.3 mb 0.00 in0.0 mm 0.00 in/hr0.0 mm/hr 0.00 in0.0 mm
04:39 PM 58.1°F14.5°C 31.2°F-0.4°C 36% 3.0 mph NE4.8 kmh NE 6.0 mph9.7 kmh 30.03 in1016.9 mb 0.00 in0.0 mm 0.00 in/hr0.0 mm/hr 0.00 in0.0 mm
04:40 PM 58.1°F14.5°C 31.2°F-0.4°C 36% 1.9 mph E3.1 kmh E 6.0 mph9.7 kmh 30.03 in1016.9 mb 0.00 in0.0 mm 0.00 in/hr0.0 mm/hr 0.00 in0.0 mm
04:44 PM 58.0°F14.4°C 31.7°F-0.2°C 37% 3.0 mph NNE4.8 kmh NNE 5.6 mph9.0 kmh 30.03 in1016.9 mb 0.00 in0.0 mm 0.00 in/hr0.0 mm/hr 0.00 in0.0 mm
04:45 PM 58.0°F14.4°C 31.7°F-0.2°C 37% 4.0 mph NNE6.4 kmh NNE 6.9 mph11.1 kmh 30.03 in1016.9 mb 0.00 in0.0 mm 0.00 in/hr0.0 mm/hr 0.00 in0.0 mm
04:49 PM 57.8°F14.3°C 31.5°F-0.3°C 37% 2.7 mph NNE4.3 kmh NNE 6.9 mph11.1 kmh 30.04 in1017.3 mb 0.00 in0.0 mm 0.00 in/hr0.0 mm/hr 0.00 in0.0 mm
04:50 PM 57.8°F14.3°C 31.5°F-0.3°C 37% 2.7 mph NE4.3 kmh NE 6.9 mph11.1 kmh 30.03 in1016.9 mb 0.00 in0.0 mm 0.00 in/hr0.0 mm/hr 0.00 in0.0 mm
04:54 PM 57.4°F14.1°C 31.1°F-0.5°C 37% 1.0 mph NNE1.6 kmh NNE 5.6 mph9.0 kmh 30.04 in1017.3 mb 0.00 in0.0 mm 0.00 in/hr0.0 mm/hr 0.00 in0.0 mm
04:55 PM 57.6°F14.2°C 31.3°F-0.4°C 37% 1.0 mph NE1.6 kmh NE 5.1 mph8.2 kmh 30.03 in1016.9 mb 0.00 in0.0 mm 0.00 in/hr0.0 mm/hr 0.00 in0.0 mm
04:59 PM 57.6°F14.2°C 32.0°F0.0°C 38% 4.5 mph N7.2 kmh N 6.3 mph10.1 kmh 30.04 in1017.3 mb 0.00 in0.0 mm 0.00 in/hr0.0 mm/hr 0.00 in0.0 mm
05:00 PM 57.6°F14.2°C 32.0°F0.0°C 38% 3.2 mph N5.1 kmh N 6.3 mph10.1 kmh 30.04 in1017.3 mb 0.00 in0.0 mm 0.00 in/hr0.0 mm/hr 0.00 in0.0 mm
05:04 PM 57.6°F14.2°C 32.0°F0.0°C 38% 3.5 mph NE5.6 kmh NE 6.3 mph10.1 kmh 30.04 in1017.3 mb 0.00 in0.0 mm 0.00 in/hr0.0 mm/hr 0.00 in0.0 mm
05:05 PM 57.6°F14.2°C 32.0°F0.0°C 38% 2.9 mph NE4.7 kmh NE 6.3 mph10.1 kmh 30.04 in1017.3 mb 0.00 in0.0 mm 0.00 in/hr0.0 mm/hr 0.00 in0.0 mm
05:09 PM 57.6°F14.2°C 32.8°F0.4°C 39% 2.2 mph NE3.5 kmh NE 5.6 mph9.0 kmh 30.04 in1017.3 mb 0.00 in0.0 mm 0.00 in/hr0.0 mm/hr 0.00 in0.0 mm
05:10 PM 57.6°F14.2°C 32.8°F0.4°C 39% 2.1 mph NNE3.4 kmh NNE 5.6 mph9.0 kmh 30.04 in1017.3 mb 0.00 in0.0 mm 0.00 in/hr0.0 mm/hr 0.00 in0.0 mm
05:14 PM 57.6°F14.2°C 32.8°F0.4°C 39% 2.2 mph NNE3.5 kmh NNE 5.1 mph8.2 kmh 30.05 in1017.6 mb 0.00 in0.0 mm 0.00 in/hr0.0 mm/hr 0.00 in0.0 mm
05:15 PM 57.6°F14.2°C 32.0°F0.0°C 38% 3.8 mph NNE6.1 kmh NNE 7.6 mph12.2 kmh 30.04 in1017.3 mb 0.00 in0.0 mm 0.00 in/hr0.0 mm/hr 0.00 in0.0 mm
05:19 PM 57.2°F14.0°C 32.4°F0.2°C 39% 3.9 mph NNE6.3 kmh NNE 7.6 mph12.2 kmh 30.04 in1017.3 mb 0.00 in0.0 mm 0.00 in/hr0.0 mm/hr 0.00 in0.0 mm
05:20 PM 57.2°F14.0°C 32.4°F0.2°C 39% 3.6 mph NNE5.8 kmh NNE 7.6 mph12.2 kmh 30.05 in1017.6 mb 0.00 in0.0 mm 0.00 in/hr0.0 mm/hr 0.00 in0.0 mm
05:24 PM 57.1°F13.9°C 32.2°F0.1°C 39% 1.9 mph N3.1 kmh N 7.6 mph12.2 kmh 30.04 in1017.3 mb 0.00 in0.0 mm 0.00 in/hr0.0 mm/hr 0.00 in0.0 mm
05:25 PM 56.9°F13.8°C 32.1°F0.1°C 39% 2.0 mph N3.2 kmh N 5.1 mph8.2 kmh 30.05 in1017.6 mb 0.00 in0.0 mm 0.00 in/hr0.0 mm/hr 0.00 in0.0 mm
05:30 PM 56.5°F13.6°C 32.5°F0.3°C 40% 3.4 mph N5.5 kmh N 4.7 mph7.6 kmh 30.05 in1017.6 mb 0.00 in0.0 mm 0.00 in/hr0.0 mm/hr 0.00 in0.0 mm
05:35 PM 56.2°F13.4°C 32.7°F0.4°C 41% 2.7 mph NNE4.3 kmh NNE 4.7 mph7.6 kmh 30.05 in1017.6 mb 0.00 in0.0 mm 0.00 in/hr0.0 mm/hr 0.00 in0.0 mm
05:36 PM 56.2°F13.4°C 32.7°F0.4°C 41% 3.1 mph NNE5.0 kmh NNE 4.7 mph7.6 kmh 30.05 in1017.6 mb 0.00 in0.0 mm 0.00 in/hr0.0 mm/hr 0.00 in0.0 mm
05:40 PM 55.8°F13.2°C 32.4°F0.2°C 41% 2.9 mph NNE4.7 kmh NNE 4.3 mph6.9 kmh 30.05 in1017.6 mb 0.00 in0.0 mm 0.00 in/hr0.0 mm/hr 0.00 in0.0 mm
05:41 PM 55.8°F13.2°C 32.4°F0.2°C 41% 2.3 mph N3.7 kmh N 4.3 mph6.9 kmh 30.05 in1017.6 mb 0.00 in0.0 mm 0.00 in/hr0.0 mm/hr 0.00 in0.0 mm
05:45 PM 55.8°F13.2°C 32.9°F0.5°C 42% 2.0 mph NNE3.2 kmh NNE 4.3 mph6.9 kmh 30.05 in1017.6 mb 0.00 in0.0 mm 0.00 in/hr0.0 mm/hr 0.00 in0.0 mm
05:46 PM 55.6°F13.1°C 32.8°F0.4°C 42% 2.3 mph NE3.7 kmh NE 4.3 mph6.9 kmh 30.05 in1017.6 mb 0.00 in0.0 mm 0.00 in/hr0.0 mm/hr 0.00 in0.0 mm
05:50 PM 55.4°F13.0°C 32.6°F0.3°C 42% 1.4 mph NE2.3 kmh NE 4.5 mph7.2 kmh 30.04 in1017.3 mb 0.00 in0.0 mm 0.00 in/hr0.0 mm/hr 0.00 in0.0 mm
05:51 PM 55.3°F12.9°C 33.0°F0.6°C 43% 2.3 mph N3.7 kmh N 4.5 mph7.2 kmh 30.04 in1017.3 mb 0.00 in0.0 mm 0.00 in/hr0.0 mm/hr 0.00 in0.0 mm
05:55 PM 55.3°F12.9°C 33.0°F0.6°C 43% 2.2 mph NE3.5 kmh NE 4.9 mph7.9 kmh 30.05 in1017.6 mb 0.00 in0.0 mm 0.00 in/hr0.0 mm/hr 0.00 in0.0 mm
05:56 PM 55.3°F12.9°C 33.0°F0.6°C 43% 2.1 mph NNE3.4 kmh NNE 4.9 mph7.9 kmh 30.05 in1017.6 mb 0.00 in0.0 mm 0.00 in/hr0.0 mm/hr 0.00 in0.0 mm
06:00 PM 55.1°F12.8°C 33.4°F0.8°C 44% 3.0 mph NE4.8 kmh NE 4.9 mph7.9 kmh 30.05 in1017.6 mb 0.00 in0.0 mm 0.00 in/hr0.0 mm/hr 0.00 in0.0 mm
06:01 PM 55.1°F12.8°C 33.4°F0.8°C 44% 1.9 mph NE3.1 kmh NE 4.9 mph7.9 kmh 30.05 in1017.6 mb 0.00 in0.0 mm 0.00 in/hr0.0 mm/hr 0.00 in0.0 mm
06:05 PM 54.9°F12.7°C 33.2°F0.7°C 44% 2.0 mph E3.2 kmh E 4.3 mph6.9 kmh 30.04 in1017.3 mb 0.00 in0.0 mm 0.00 in/hr0.0 mm/hr 0.00 in0.0 mm
06:06 PM 54.9°F12.7°C 33.9°F1.1°C 45% 1.5 mph E2.4 kmh E 4.3 mph6.9 kmh 30.04 in1017.3 mb 0.00 in0.0 mm 0.00 in/hr0.0 mm/hr 0.00 in0.0 mm
06:10 PM 54.7°F12.6°C 33.7°F0.9°C 45% 2.4 mph NE3.9 kmh NE 4.0 mph6.4 kmh 30.05 in1017.6 mb 0.00 in0.0 mm 0.00 in/hr0.0 mm/hr 0.00 in0.0 mm
06:11 PM 54.5°F12.5°C 33.5°F0.8°C 45% 2.8 mph NNE4.5 kmh NNE 4.0 mph6.4 kmh 30.05 in1017.6 mb 0.00 in0.0 mm 0.00 in/hr0.0 mm/hr 0.00 in0.0 mm
06:15 PM 54.5°F12.5°C 33.5°F0.8°C 45% 2.2 mph NE3.5 kmh NE 4.0 mph6.4 kmh 30.05 in1017.6 mb 0.00 in0.0 mm 0.00 in/hr0.0 mm/hr 0.00 in0.0 mm
06:17 PM 54.4°F12.4°C 33.3°F0.7°C 45% 1.2 mph NE1.9 kmh NE 4.0 mph6.4 kmh 30.04 in1017.3 mb 0.00 in0.0 mm 0.00 in/hr0.0 mm/hr 0.00 in0.0 mm
06:21 PM 54.4°F12.4°C 33.3°F0.7°C 45% 2.5 mph NE4.0 kmh NE 3.8 mph6.1 kmh 30.05 in1017.6 mb 0.00 in0.0 mm 0.00 in/hr0.0 mm/hr 0.00 in0.0 mm
06:22 PM 54.4°F12.4°C 33.3°F0.7°C 45% 1.7 mph E2.7 kmh E 3.8 mph6.1 kmh 30.04 in1017.3 mb 0.00 in0.0 mm 0.00 in/hr0.0 mm/hr 0.00 in0.0 mm
06:26 PM 54.2°F12.3°C 33.1°F0.6°C 45% 1.1 mph E1.8 kmh E 3.4 mph5.5 kmh 30.05 in1017.6 mb 0.00 in0.0 mm 0.00 in/hr0.0 mm/hr 0.00 in0.0 mm
06:27 PM 54.2°F12.3°C 33.1°F0.6°C 45% 0.8 mph E1.3 kmh E 3.4 mph5.5 kmh 30.05 in1017.6 mb 0.00 in0.0 mm 0.00 in/hr0.0 mm/hr 0.00 in0.0 mm
06:31 PM 54.0°F12.2°C 33.0°F0.6°C 45% 2.0 mph NE3.2 kmh NE 3.4 mph5.5 kmh 30.05 in1017.6 mb 0.00 in0.0 mm 0.00 in/hr0.0 mm/hr 0.00 in0.0 mm
06:32 PM 54.0°F12.2°C 33.0°F0.6°C 45% 1.7 mph ENE2.7 kmh ENE 3.4 mph5.5 kmh 30.05 in1017.6 mb 0.00 in0.0 mm 0.00 in/hr0.0 mm/hr 0.00 in0.0 mm
06:36 PM 53.8°F12.1°C 32.9°F0.5°C 45% 2.7 mph NE4.3 kmh NE 3.1 mph5.0 kmh 30.05 in1017.6 mb 0.00 in0.0 mm 0.00 in/hr0.0 mm/hr 0.00 in0.0 mm
06:37 PM 53.8°F12.1°C 32.9°F0.5°C 45% 2.0 mph NE3.2 kmh NE 3.1 mph5.0 kmh 30.05 in1017.6 mb 0.00 in0.0 mm 0.00 in/hr0.0 mm/hr 0.00 in0.0 mm
06:41 PM 53.6°F12.0°C 33.2°F0.7°C 46% 2.2 mph NE3.5 kmh NE 3.6 mph5.8 kmh 30.05 in1017.6 mb 0.00 in0.0 mm 0.00 in/hr0.0 mm/hr 0.00 in0.0 mm
06:42 PM 53.6°F12.0°C 33.2°F0.7°C 46% 2.5 mph NE4.0 kmh NE 3.6 mph5.8 kmh 30.05 in1017.6 mb 0.00 in0.0 mm 0.00 in/hr0.0 mm/hr 0.00 in0.0 mm
06:46 PM 53.6°F12.0°C 33.2°F0.7°C 46% 1.8 mph NE2.9 kmh NE 3.6 mph5.8 kmh 30.05 in1017.6 mb 0.00 in0.0 mm 0.00 in/hr0.0 mm/hr 0.00 in0.0 mm
06:47 PM 53.6°F12.0°C 33.2°F0.7°C 46% 1.8 mph NE2.9 kmh NE 3.6 mph5.8 kmh 30.05 in1017.6 mb 0.00 in0.0 mm 0.00 in/hr0.0 mm/hr 0.00 in0.0 mm
06:51 PM 53.5°F11.9°C 33.0°F0.6°C 46% 0.6 mph E1.0 kmh E 3.4 mph5.5 kmh 30.05 in1017.6 mb 0.00 in0.0 mm 0.00 in/hr0.0 mm/hr 0.00 in0.0 mm
06:52 PM 53.5°F11.9°C 33.0°F0.6°C 46% 0.6 mph ENE1.0 kmh ENE 3.4 mph5.5 kmh 30.05 in1017.6 mb 0.00 in0.0 mm 0.00 in/hr0.0 mm/hr 0.00 in0.0 mm
06:56 PM 53.5°F11.9°C 33.0°F0.6°C 46% 1.3 mph NE2.1 kmh NE 3.4 mph5.5 kmh 30.05 in1017.6 mb 0.00 in0.0 mm 0.00 in/hr0.0 mm/hr 0.00 in0.0 mm
06:57 PM 53.5°F11.9°C 33.0°F0.6°C 46% 1.3 mph NE2.1 kmh NE 3.4 mph5.5 kmh 30.05 in1017.6 mb 0.00 in0.0 mm 0.00 in/hr0.0 mm/hr 0.00 in0.0 mm
07:01 PM 53.3°F11.8°C 33.0°F0.6°C 46% 2.0 mph NE3.2 kmh NE 3.1 mph5.0 kmh 30.06 in1017.9 mb 0.00 in0.0 mm 0.00 in/hr0.0 mm/hr 0.00 in0.0 mm
07:03 PM 53.3°F11.8°C 33.0°F0.6°C 46% 2.3 mph NE3.7 kmh NE 3.1 mph5.0 kmh 30.06 in1017.9 mb 0.00 in0.0 mm 0.00 in/hr0.0 mm/hr 0.00 in0.0 mm
07:06 PM 53.3°F11.8°C 33.0°F0.6°C 46% 2.2 mph ENE3.5 kmh ENE 3.1 mph5.0 kmh 30.06 in1017.9 mb 0.00 in0.0 mm 0.00 in/hr0.0 mm/hr 0.00 in0.0 mm
07:08 PM 53.3°F11.8°C 33.0°F0.6°C 46% 1.3 mph NE2.1 kmh NE 3.1 mph5.0 kmh 30.06 in1017.9 mb 0.00 in0.0 mm 0.00 in/hr0.0 mm/hr 0.00 in0.0 mm
07:11 PM 53.3°F11.8°C 33.0°F0.6°C 46% 1.0 mph NE1.6 kmh NE 3.1 mph5.0 kmh 30.07 in1018.3 mb 0.00 in0.0 mm 0.00 in/hr0.0 mm/hr 0.00 in0.0 mm
07:13 PM 53.3°F11.8°C 33.0°F0.6°C 46% 1.4 mph NE2.3 kmh NE 2.7 mph4.3 kmh 30.07 in1018.3 mb 0.00 in0.0 mm 0.00 in/hr0.0 mm/hr 0.00 in0.0 mm
07:17 PM 53.3°F11.8°C 33.0°F0.6°C 46% 0.7 mph E1.1 kmh E 1.8 mph2.9 kmh 30.07 in1018.3 mb 0.00 in0.0 mm 0.00 in/hr0.0 mm/hr 0.00 in0.0 mm
07:18 PM 53.3°F11.8°C 33.0°F0.6°C 46% 0.5 mph E0.8 kmh E 1.8 mph2.9 kmh 30.07 in1018.3 mb 0.00 in0.0 mm 0.00 in/hr0.0 mm/hr 0.00 in0.0 mm
07:22 PM 53.3°F11.8°C 33.0°F0.6°C 46% 1.3 mph E2.1 kmh E 2.5 mph4.0 kmh 30.07 in1018.3 mb 0.00 in0.0 mm 0.00 in/hr0.0 mm/hr 0.00 in0.0 mm
07:23 PM 53.1°F11.7°C 32.8°F0.4°C 46% 1.7 mph E2.7 kmh E 2.5 mph4.0 kmh 30.07 in1018.3 mb 0.00 in0.0 mm 0.00 in/hr0.0 mm/hr 0.00 in0.0 mm
07:27 PM 53.1°F11.7°C 32.8°F0.4°C 46% 1.2 mph ENE1.9 kmh ENE 2.7 mph4.3 kmh 30.07 in1018.3 mb 0.00 in0.0 mm 0.00 in/hr0.0 mm/hr 0.00 in0.0 mm
07:28 PM 53.1°F11.7°C 32.8°F0.4°C 46% 1.0 mph ENE1.6 kmh ENE 2.7 mph4.3 kmh 30.07 in1018.3 mb 0.00 in0.0 mm 0.00 in/hr0.0 mm/hr 0.00 in0.0 mm
07:32 PM 52.9°F11.6°C 33.1°F0.6°C 47% 1.6 mph NE2.6 kmh NE 2.9 mph4.7 kmh 30.07 in1018.3 mb 0.00 in0.0 mm 0.00 in/hr0.0 mm/hr 0.00 in0.0 mm
07:33 PM 52.9°F11.6°C 33.1°F0.6°C 47% 1.4 mph NNE2.3 kmh NNE 2.9 mph4.7 kmh 30.07 in1018.3 mb 0.00 in0.0 mm 0.00 in/hr0.0 mm/hr 0.00 in0.0 mm
07:37 PM 52.9°F11.6°C 33.1°F0.6°C 47% 1.9 mph E3.1 kmh E 3.4 mph5.5 kmh 30.07 in1018.3 mb 0.00 in0.0 mm 0.00 in/hr0.0 mm/hr 0.00 in0.0 mm
07:38 PM 52.9°F11.6°C 33.1°F0.6°C 47% 1.0 mph E1.6 kmh E 3.4 mph5.5 kmh 30.07 in1018.3 mb 0.00 in0.0 mm 0.00 in/hr0.0 mm/hr 0.00 in0.0 mm
07:42 PM 52.7°F11.5°C 32.9°F0.5°C 47% 1.2 mph E1.9 kmh E 3.4 mph5.5 kmh 30.07 in1018.3 mb 0.00 in0.0 mm 0.00 in/hr0.0 mm/hr 0.00 in0.0 mm
07:46 PM 52.6°F11.4°C 33.4°F0.8°C 48% 1.1 mph ENE1.8 kmh ENE 2.9 mph4.7 kmh 30.07 in1018.3 mb 0.00 in0.0 mm 0.00 in/hr0.0 mm/hr 0.00 in0.0 mm
07:47 PM 52.6°F11.4°C 33.4°F0.8°C 48% 1.0 mph ENE1.6 kmh ENE 2.9 mph4.7 kmh 30.07 in1018.3 mb 0.00 in0.0 mm 0.00 in/hr0.0 mm/hr 0.00 in0.0 mm
07:51 PM 52.6°F11.4°C 33.4°F0.8°C 48% 1.3 mph E2.1 kmh E 2.9 mph4.7 kmh 30.07 in1018.3 mb 0.00 in0.0 mm 0.00 in/hr0.0 mm/hr 0.00 in0.0 mm
07:52 PM 52.6°F11.4°C 33.4°F0.8°C 48% 1.3 mph ENE2.1 kmh ENE 2.9 mph4.7 kmh 30.07 in1018.3 mb 0.00 in0.0 mm 0.00 in/hr0.0 mm/hr 0.00 in0.0 mm
07:56 PM 52.4°F11.3°C 33.2°F0.7°C 48% 1.3 mph E2.1 kmh E 2.5 mph4.0 kmh 30.07 in1018.3 mb 0.00 in0.0 mm 0.00 in/hr0.0 mm/hr 0.00 in0.0 mm
07:57 PM 52.4°F11.3°C 33.2°F0.7°C 48% 1.3 mph E2.1 kmh E 2.5 mph4.0 kmh 30.07 in1018.3 mb 0.00 in0.0 mm 0.00 in/hr0.0 mm/hr 0.00 in0.0 mm
08:01 PM 52.2°F11.2°C 33.6°F0.9°C 49% 1.8 mph E2.9 kmh E 2.7 mph4.3 kmh 30.07 in1018.3 mb 0.00 in0.0 mm 0.00 in/hr0.0 mm/hr 0.00 in0.0 mm
08:03 PM 52.2°F11.2°C 33.6°F0.9°C 49% 1.1 mph E1.8 kmh E 2.7 mph4.3 kmh 30.07 in1018.3 mb 0.00 in0.0 mm 0.00 in/hr0.0 mm/hr 0.00 in0.0 mm
08:07 PM 52.2°F11.2°C 33.6°F0.9°C 49% 1.1 mph E1.8 kmh E 2.7 mph4.3 kmh 30.07 in1018.3 mb 0.00 in0.0 mm 0.00 in/hr0.0 mm/hr 0.00 in0.0 mm
08:08 PM 52.2°F11.2°C 33.6°F0.9°C 49% 0.8 mph ESE1.3 kmh ESE 2.7 mph4.3 kmh 30.07 in1018.3 mb 0.00 in0.0 mm 0.00 in/hr0.0 mm/hr 0.00 in0.0 mm
08:12 PM 52.0°F11.1°C 33.5°F0.8°C 49% 1.0 mph ESE1.6 kmh ESE 1.8 mph2.9 kmh 30.06 in1017.9 mb 0.00 in0.0 mm 0.00 in/hr0.0 mm/hr 0.00 in0.0 mm
08:13 PM 52.0°F11.1°C 33.5°F0.8°C 49% 0.7 mph ESE1.1 kmh ESE 1.8 mph2.9 kmh 30.06 in1017.9 mb 0.00 in0.0 mm 0.00 in/hr0.0 mm/hr 0.00 in0.0 mm
08:17 PM 51.8°F11.0°C 33.8°F1.0°C 50% 1.2 mph ESE1.9 kmh ESE 1.8 mph2.9 kmh 30.07 in1018.3 mb 0.00 in0.0 mm 0.00 in/hr0.0 mm/hr 0.00 in0.0 mm
08:18 PM 51.8°F11.0°C 33.8°F1.0°C 50% 1.6 mph E2.6 kmh E 1.8 mph2.9 kmh 30.07 in1018.3 mb 0.00 in0.0 mm 0.00 in/hr0.0 mm/hr 0.00 in0.0 mm
08:22 PM 51.7°F10.9°C 33.7°F0.9°C 50% 1.9 mph ESE3.1 kmh ESE 2.5 mph4.0 kmh 30.06 in1017.9 mb 0.00 in0.0 mm 0.00 in/hr0.0 mm/hr 0.00 in0.0 mm
08:23 PM 51.7°F10.9°C 34.1°F1.2°C 51% 1.3 mph ESE2.1 kmh ESE 2.5 mph4.0 kmh 30.06 in1017.9 mb 0.00 in0.0 mm 0.00 in/hr0.0 mm/hr 0.00 in0.0 mm
08:27 PM 51.5°F10.8°C 33.9°F1.1°C 51% 0.7 mph ESE1.1 kmh ESE 2.5 mph4.0 kmh 30.06 in1017.9 mb 0.00 in0.0 mm 0.00 in/hr0.0 mm/hr 0.00 in0.0 mm
08:28 PM 51.5°F10.8°C 33.9°F1.1°C 51% 0.6 mph ESE1.0 kmh ESE 2.5 mph4.0 kmh 30.06 in1017.9 mb 0.00 in0.0 mm 0.00 in/hr0.0 mm/hr 0.00 in0.0 mm
08:32 PM 51.3°F10.7°C 33.9°F1.1°C 51% 0.6 mph ESE1.0 kmh ESE 1.8 mph2.9 kmh 30.07 in1018.3 mb 0.00 in0.0 mm 0.00 in/hr0.0 mm/hr 0.00 in0.0 mm
08:33 PM 51.3°F10.7°C 33.9°F1.1°C 51% 0.8 mph ESE1.3 kmh ESE 1.3 mph2.1 kmh 30.07 in1018.3 mb 0.00 in0.0 mm 0.00 in/hr0.0 mm/hr 0.00 in0.0 mm
08:37 PM 51.1°F10.6°C 34.1°F1.2°C 52% 0.7 mph SE1.1 kmh SE 1.1 mph1.8 kmh 30.07 in1018.3 mb 0.00 in0.0 mm 0.00 in/hr0.0 mm/hr 0.00 in0.0 mm
08:38 PM 51.1°F10.6°C 34.1°F1.2°C 52% 0.7 mph SE1.1 kmh SE 1.1 mph1.8 kmh 30.07 in1018.3 mb 0.00 in0.0 mm 0.00 in/hr0.0 mm/hr 0.00 in0.0 mm
08:42 PM 51.1°F10.6°C 34.1°F1.2°C 52% 0.9 mph ESE1.4 kmh ESE 1.6 mph2.6 kmh 30.07 in1018.3 mb 0.00 in0.0 mm 0.00 in/hr0.0 mm/hr 0.00 in0.0 mm
08:43 PM 51.1°F10.6°C 34.1°F1.2°C 52% 0.9 mph ESE1.4 kmh ESE 1.6 mph2.6 kmh 30.07 in1018.3 mb 0.00 in0.0 mm 0.00 in/hr0.0 mm/hr 0.00 in0.0 mm
08:47 PM 50.9°F10.5°C 34.4°F1.3°C 53% 0.5 mph ESE0.8 kmh ESE 1.6 mph2.6 kmh 30.08 in1018.6 mb 0.00 in0.0 mm 0.00 in/hr0.0 mm/hr 0.00 in0.0 mm
08:48 PM 50.9°F10.5°C 34.4°F1.3°C 53% 0.6 mph ESE1.0 kmh ESE 1.6 mph2.6 kmh 30.08 in1018.6 mb 0.00 in0.0 mm 0.00 in/hr0.0 mm/hr 0.00 in0.0 mm
08:52 PM 50.9°F10.5°C 34.4°F1.3°C 53% 0.3 mph ESE0.5 kmh ESE 0.9 mph1.4 kmh 30.08 in1018.6 mb 0.00 in0.0 mm 0.00 in/hr0.0 mm/hr 0.00 in0.0 mm
08:53 PM 50.9°F10.5°C 34.4°F1.3°C 53% 0.3 mph ESE0.5 kmh ESE 0.9 mph1.4 kmh 30.08 in1018.6 mb 0.00 in0.0 mm 0.00 in/hr0.0 mm/hr 0.00 in0.0 mm
08:57 PM 50.9°F10.5°C 34.4°F1.3°C 53% 0.7 mph ESE1.1 kmh ESE 0.9 mph1.4 kmh 30.08 in1018.6 mb 0.00 in0.0 mm 0.00 in/hr0.0 mm/hr 0.00 in0.0 mm
08:58 PM 50.9°F10.5°C 34.8°F1.6°C 54% 0.7 mph ESE1.1 kmh ESE 0.9 mph1.4 kmh 30.08 in1018.6 mb 0.00 in0.0 mm 0.00 in/hr0.0 mm/hr 0.00 in0.0 mm
09:03 PM 50.9°F10.5°C 34.8°F1.6°C 54% 0.4 mph ESE0.6 kmh ESE 0.9 mph1.4 kmh 30.08 in1018.6 mb 0.00 in0.0 mm 0.00 in/hr0.0 mm/hr 0.00 in0.0 mm
09:08 PM 50.9°F10.5°C 34.8°F1.6°C 54% 0.3 mph ESE0.5 kmh ESE 0.9 mph1.4 kmh 30.09 in1019.0 mb 0.00 in0.0 mm 0.00 in/hr0.0 mm/hr 0.00 in0.0 mm
09:13 PM 50.9°F10.5°C 34.8°F1.6°C 54% 0.8 mph SE1.3 kmh SE 0.9 mph1.4 kmh 30.09 in1019.0 mb 0.00 in0.0 mm 0.00 in/hr0.0 mm/hr 0.00 in0.0 mm
09:18 PM 50.9°F10.5°C 34.8°F1.6°C 54% 0.3 mph SE0.5 kmh SE 1.1 mph1.8 kmh 30.09 in1019.0 mb 0.00 in0.0 mm 0.00 in/hr0.0 mm/hr 0.00 in0.0 mm
09:23 PM 50.9°F10.5°C 34.8°F1.6°C 54% 0.3 mph SE0.5 kmh SE 1.1 mph1.8 kmh 30.09 in1019.0 mb 0.00 in0.0 mm 0.00 in/hr0.0 mm/hr 0.00 in0.0 mm
09:28 PM 50.9°F10.5°C 34.8°F1.6°C 54% 0.2 mph SE0.3 kmh SE 0.7 mph1.1 kmh 30.09 in1019.0 mb 0.00 in0.0 mm 0.00 in/hr0.0 mm/hr 0.00 in0.0 mm
09:33 PM 50.9°F10.5°C 34.8°F1.6°C 54% 1.0 mph E1.6 kmh E 1.8 mph2.9 kmh 30.09 in1019.0 mb 0.00 in0.0 mm 0.00 in/hr0.0 mm/hr 0.00 in0.0 mm
09:38 PM 50.9°F10.5°C 35.3°F1.8°C 55% 0.9 mph SE1.4 kmh SE 1.8 mph2.9 kmh 30.09 in1019.0 mb 0.00 in0.0 mm 0.00 in/hr0.0 mm/hr 0.00 in0.0 mm
09:43 PM 51.1°F10.6°C 35.5°F1.9°C 55% 0.9 mph SE1.4 kmh SE 1.6 mph2.6 kmh 30.08 in1018.6 mb 0.00 in0.0 mm 0.00 in/hr0.0 mm/hr 0.00 in0.0 mm
09:44 PM 51.1°F10.6°C 35.5°F1.9°C 55% 1.0 mph SE1.6 kmh SE 1.6 mph2.6 kmh 30.08 in1018.6 mb 0.00 in0.0 mm 0.00 in/hr0.0 mm/hr 0.00 in0.0 mm
09:48 PM 51.1°F10.6°C 35.5°F1.9°C 55% 0.9 mph SE1.4 kmh SE 1.6 mph2.6 kmh 30.08 in1018.6 mb 0.00 in0.0 mm 0.00 in/hr0.0 mm/hr 0.00 in0.0 mm
09:49 PM 51.1°F10.6°C 35.5°F1.9°C 55% 0.9 mph SE1.4 kmh SE 1.6 mph2.6 kmh 30.08 in1018.6 mb 0.00 in0.0 mm 0.00 in/hr0.0 mm/hr 0.00 in0.0 mm
09:53 PM 51.1°F10.6°C 35.5°F1.9°C 55% 0.5 mph SSE0.8 kmh SSE 1.6 mph2.6 kmh 30.08 in1018.6 mb 0.00 in0.0 mm 0.00 in/hr0.0 mm/hr 0.00 in0.0 mm
09:54 PM 50.9°F10.5°C 35.3°F1.8°C 55% 0.5 mph SE0.8 kmh SE 1.6 mph2.6 kmh 30.08 in1018.6 mb 0.00 in0.0 mm 0.00 in/hr0.0 mm/hr 0.00 in0.0 mm
09:59 PM 51.1°F10.6°C 35.9°F2.2°C 56% 1.3 mph SSE2.1 kmh SSE 1.8 mph2.9 kmh 30.08 in1018.6 mb 0.00 in0.0 mm 0.00 in/hr0.0 mm/hr 0.00 in0.0 mm
10:04 PM 50.9°F10.5°C 35.7°F2.1°C 56% 1.1 mph S1.8 kmh S 1.8 mph2.9 kmh 30.08 in1018.6 mb 0.00 in0.0 mm 0.00 in/hr0.0 mm/hr 0.00 in0.0 mm
10:09 PM 50.9°F10.5°C 35.7°F2.1°C 56% 0.7 mph S1.1 kmh S 1.8 mph2.9 kmh 30.08 in1018.6 mb 0.00 in0.0 mm 0.00 in/hr0.0 mm/hr 0.00 in0.0 mm
10:14 PM 50.9°F10.5°C 35.7°F2.1°C 56% 0.4 mph S0.6 kmh S 1.8 mph2.9 kmh 30.09 in1019.0 mb 0.00 in0.0 mm 0.00 in/hr0.0 mm/hr 0.00 in0.0 mm
10:19 PM 50.9°F10.5°C 35.7°F2.1°C 56% 0.2 mph SSE0.3 kmh SSE 1.1 mph1.8 kmh 30.09 in1019.0 mb 0.00 in0.0 mm 0.00 in/hr0.0 mm/hr 0.00 in0.0 mm
10:24 PM 50.9°F10.5°C 35.7°F2.1°C 56% Calm Calm 0.4 mph0.6 kmh 30.09 in1019.0 mb 0.00 in0.0 mm 0.00 in/hr0.0 mm/hr 0.00 in0.0 mm
10:29 PM 50.8°F10.4°C 35.6°F2.0°C 56% 0.3 mph SE0.5 kmh SE 0.7 mph1.1 kmh 30.09 in1019.0 mb 0.00 in0.0 mm 0.00 in/hr0.0 mm/hr 0.00 in0.0 mm
10:34 PM 50.8°F10.4°C 35.1°F1.7°C 55% 0.3 mph SE0.5 kmh SE 0.7 mph1.1 kmh 30.09 in1019.0 mb 0.00 in0.0 mm 0.00 in/hr0.0 mm/hr 0.00 in0.0 mm
10:35 PM 50.8°F10.4°C 35.6°F2.0°C 56% 0.3 mph SE0.5 kmh SE 0.7 mph1.1 kmh 30.09 in1019.0 mb 0.00 in0.0 mm 0.00 in/hr0.0 mm/hr 0.00 in0.0 mm
10:39 PM 50.6°F10.3°C 35.4°F1.9°C 56% 0.4 mph SE0.6 kmh SE 1.1 mph1.8 kmh 30.10 in1019.3 mb 0.00 in0.0 mm 0.00 in/hr0.0 mm/hr 0.00 in0.0 mm
10:40 PM 50.6°F10.3°C 35.4°F1.9°C 56% 0.3 mph SE0.5 kmh SE 1.1 mph1.8 kmh 30.09 in1019.0 mb 0.00 in0.0 mm 0.00 in/hr0.0 mm/hr 0.00 in0.0 mm
10:44 PM 50.4°F10.2°C 35.3°F1.8°C 56% 0.3 mph SE0.5 kmh SE 1.1 mph1.8 kmh 30.09 in1019.0 mb 0.00 in0.0 mm 0.00 in/hr0.0 mm/hr 0.00 in0.0 mm
10:45 PM 50.4°F10.2°C 35.3°F1.8°C 56% 0.5 mph SE0.8 kmh SE 1.1 mph1.8 kmh 30.09 in1019.0 mb 0.00 in0.0 mm 0.00 in/hr0.0 mm/hr 0.00 in0.0 mm
10:49 PM 50.2°F10.1°C 35.1°F1.7°C 56% 0.7 mph SE1.1 kmh SE 1.1 mph1.8 kmh 30.10 in1019.3 mb 0.00 in0.0 mm 0.00 in/hr0.0 mm/hr 0.00 in0.0 mm
10:50 PM 50.2°F10.1°C 35.1°F1.7°C 56% 0.5 mph SE0.8 kmh SE 1.1 mph1.8 kmh 30.09 in1019.0 mb 0.00 in0.0 mm 0.00 in/hr0.0 mm/hr 0.00 in0.0 mm
10:54 PM 50.0°F10.0°C 34.9°F1.6°C 56% 0.2 mph SE0.3 kmh SE 1.1 mph1.8 kmh 30.10 in1019.3 mb 0.00 in0.0 mm 0.00 in/hr0.0 mm/hr 0.00 in0.0 mm
10:55 PM 50.0°F10.0°C 35.4°F1.9°C 57% Calm Calm 1.1 mph1.8 kmh 30.10 in1019.3 mb 0.00 in0.0 mm 0.00 in/hr0.0 mm/hr 0.00 in0.0 mm
10:59 PM 50.0°F10.0°C 35.4°F1.9°C 57% Calm Calm 0.4 mph0.6 kmh 30.10 in1019.3 mb 0.00 in0.0 mm 0.00 in/hr0.0 mm/hr 0.00 in0.0 mm
11:00 PM 50.0°F10.0°C 35.4°F1.9°C 57% 0.2 mph SE0.3 kmh SE 0.4 mph0.6 kmh 30.09 in1019.0 mb 0.00 in0.0 mm 0.00 in/hr0.0 mm/hr 0.00 in0.0 mm
11:04 PM 49.9°F9.9°C 35.2°F1.8°C 57% 0.4 mph SE0.6 kmh SE 0.4 mph0.6 kmh 30.10 in1019.3 mb 0.00 in0.0 mm 0.00 in/hr0.0 mm/hr 0.00 in0.0 mm
11:05 PM 49.9°F9.9°C 35.2°F1.8°C 57% 0.4 mph SE0.6 kmh SE 0.7 mph1.1 kmh 30.10 in1019.3 mb 0.00 in0.0 mm 0.00 in/hr0.0 mm/hr 0.00 in0.0 mm
11:09 PM 49.7°F9.8°C 35.5°F1.9°C 58% 0.9 mph SE1.4 kmh SE 1.1 mph1.8 kmh 30.10 in1019.3 mb 0.00 in0.0 mm 0.00 in/hr0.0 mm/hr 0.00 in0.0 mm
11:11 PM 49.7°F9.8°C 35.5°F1.9°C 58% 0.9 mph SSE1.4 kmh SSE 1.1 mph1.8 kmh 30.09 in1019.0 mb 0.00 in0.0 mm 0.00 in/hr0.0 mm/hr 0.00 in0.0 mm
11:14 PM 49.7°F9.8°C 35.5°F1.9°C 58% 0.6 mph SSE1.0 kmh SSE 1.1 mph1.8 kmh 30.09 in1019.0 mb 0.00 in0.0 mm 0.00 in/hr0.0 mm/hr 0.00 in0.0 mm
11:16 PM 49.7°F9.8°C 35.5°F1.9°C 58% 0.5 mph SSE0.8 kmh SSE 1.1 mph1.8 kmh 30.10 in1019.3 mb 0.00 in0.0 mm 0.00 in/hr0.0 mm/hr 0.00 in0.0 mm
11:20 PM 49.9°F9.9°C 35.6°F2.0°C 58% 0.7 mph SSW1.1 kmh SSW 1.1 mph1.8 kmh 30.10 in1019.3 mb 0.00 in0.0 mm 0.00 in/hr0.0 mm/hr 0.00 in0.0 mm
11:21 PM 49.9°F9.9°C 36.1°F2.3°C 59% 1.0 mph SW1.6 kmh SW 1.1 mph1.8 kmh 30.10 in1019.3 mb 0.00 in0.0 mm 0.00 in/hr0.0 mm/hr 0.00 in0.0 mm
11:25 PM 49.9°F9.9°C 35.6°F2.0°C 58% 0.3 mph SSW0.5 kmh SSW 1.1 mph1.8 kmh 30.10 in1019.3 mb 0.00 in0.0 mm 0.00 in/hr0.0 mm/hr 0.00 in0.0 mm
11:26 PM 49.9°F9.9°C 36.1°F2.3°C 59% 0.4 mph SSW0.6 kmh SSW 1.1 mph1.8 kmh 30.10 in1019.3 mb 0.00 in0.0 mm 0.00 in/hr0.0 mm/hr 0.00 in0.0 mm
11:30 PM 49.9°F9.9°C 36.1°F2.3°C 59% 0.3 mph SSW0.5 kmh SSW 1.1 mph1.8 kmh 30.10 in1019.3 mb 0.00 in0.0 mm 0.00 in/hr0.0 mm/hr 0.00 in0.0 mm
11:31 PM 49.9°F9.9°C 35.6°F2.0°C 58% 0.3 mph SSW0.5 kmh SSW 0.9 mph1.4 kmh 30.10 in1019.3 mb 0.00 in0.0 mm 0.00 in/hr0.0 mm/hr 0.00 in0.0 mm
11:35 PM 49.7°F9.8°C 35.5°F1.9°C 58% Calm Calm 0.7 mph1.1 kmh 30.10 in1019.3 mb 0.00 in0.0 mm 0.00 in/hr0.0 mm/hr 0.00 in0.0 mm
11:36 PM 49.7°F9.8°C 35.9°F2.2°C 59% Calm Calm 0.4 mph0.6 kmh 30.10 in1019.3 mb 0.00 in0.0 mm 0.00 in/hr0.0 mm/hr 0.00 in0.0 mm
11:40 PM 49.7°F9.8°C 35.9°F2.2°C 59% Calm Calm 0.4 mph0.6 kmh 30.10 in1019.3 mb 0.00 in0.0 mm 0.00 in/hr0.0 mm/hr 0.00 in0.0 mm
11:41 PM 49.5°F9.7°C 35.8°F2.1°C 59% Calm Calm 0.2 mph0.3 kmh 30.10 in1019.3 mb 0.00 in0.0 mm 0.00 in/hr0.0 mm/hr 0.00 in0.0 mm
11:45 PM 49.5°F9.7°C 35.8°F2.1°C 59% Calm Calm -- 30.10 in1019.3 mb 0.00 in0.0 mm 0.00 in/hr0.0 mm/hr 0.00 in0.0 mm
11:46 PM 49.5°F9.7°C 35.8°F2.1°C 59% Calm Calm -- 30.10 in1019.3 mb 0.00 in0.0 mm 0.00 in/hr0.0 mm/hr 0.00 in0.0 mm
11:50 PM 49.3°F9.6°C 35.7°F2.1°C 59% 0.3 mph SSW0.5 kmh SSW 0.4 mph0.6 kmh 30.10 in1019.3 mb 0.00 in0.0 mm 0.00 in/hr0.0 mm/hr 0.00 in0.0 mm
11:51 PM 49.3°F9.6°C 35.7°F2.1°C 59% 0.3 mph SSW0.5 kmh SSW 0.4 mph0.6 kmh 30.10 in1019.3 mb 0.00 in0.0 mm 0.00 in/hr0.0 mm/hr 0.00 in0.0 mm
11:55 PM 49.3°F9.6°C 35.7°F2.1°C 59% 0.4 mph SSW0.6 kmh SSW 0.7 mph1.1 kmh 30.10 in1019.3 mb 0.00 in0.0 mm 0.00 in/hr0.0 mm/hr 0.00 in0.0 mm
11:56 PM 49.3°F9.6°C 35.7°F2.1°C 59% 0.4 mph SSW0.6 kmh SSW 0.7 mph1.1 kmh 30.10 in1019.3 mb 0.00 in0.0 mm 0.00 in/hr0.0 mm/hr 0.00 in0.0 mm